Time,TemperatureF,DewpointF,PressureIn,WindDirection,WindDirectionDegrees,WindSpeedMPH,WindSpeedGustMPH,Humidity,HourlyPrecipIn,Conditions,Clouds,dailyrainin,SoftwareType,DateUTC
2013-10-16 00:00:00,75.0,70.0,29.88,South,180,6.0,6.0,84,0.00,,,0.00,TxWx,2013-10-16 05:00:00,
2013-10-16 00:02:00,75.0,70.0,29.88,South,180,5.0,5.0,84,0.00,,,0.00,TxWx,2013-10-16 05:02:00,
2013-10-16 00:03:00,75.0,70.0,29.88,SSE,157,5.0,5.0,84,0.00,,,0.00,TxWx,2013-10-16 05:03:00,
2013-10-16 00:04:00,75.0,70.0,29.88,SSE,157,3.0,4.0,84,0.00,,,0.00,TxWx,2013-10-16 05:04:00,
2013-10-16 00:05:00,75.0,70.0,29.88,ESE,112,3.0,4.0,84,0.00,,,0.00,TxWx,2013-10-16 05:05:00,
2013-10-16 00:07:00,75.0,70.0,29.88,South,180,4.0,5.0,84,0.00,,,0.00,TxWx,2013-10-16 05:07:00,
2013-10-16 00:09:00,75.0,70.0,29.88,South,180,3.0,3.0,84,0.00,,,0.00,TxWx,2013-10-16 05:09:00,
2013-10-16 00:11:00,75.0,70.0,29.88,SSE,157,5.0,5.0,84,0.00,,,0.00,TxWx,2013-10-16 05:11:00,
2013-10-16 00:12:00,75.0,70.0,29.88,SSE,157,5.0,5.0,84,0.00,,,0.00,TxWx,2013-10-16 05:12:00,
2013-10-16 00:14:00,75.0,70.0,29.88,SSE,157,3.0,3.0,84,0.00,,,0.00,TxWx,2013-10-16 05:14:00,
2013-10-16 00:15:00,75.0,70.0,29.88,SSE,157,6.0,6.0,84,0.00,,,0.00,TxWx,2013-10-16 05:15:00,
2013-10-16 00:16:00,75.0,70.0,29.87,SE,135,3.0,3.0,84,0.00,,,0.00,TxWx,2013-10-16 05:16:00,
2013-10-16 00:18:00,75.0,70.0,29.88,SE,135,6.0,6.0,84,0.00,,,0.00,TxWx,2013-10-16 05:18:00,
2013-10-16 00:19:00,75.0,70.0,29.88,SSW,202,4.0,4.0,84,0.00,,,0.00,TxWx,2013-10-16 05:19:00,
2013-10-16 00:20:00,75.0,70.0,29.87,SSW,202,5.0,5.0,84,0.00,,,0.00,TxWx,2013-10-16 05:20:00,
2013-10-16 00:21:00,75.0,70.0,29.87,South,180,3.0,4.0,84,0.00,,,0.00,TxWx,2013-10-16 05:21:00,
2013-10-16 00:22:00,75.0,70.0,29.87,SSE,157,4.0,4.0,84,0.00,,,0.00,TxWx,2013-10-16 05:22:00,
2013-10-16 00:23:00,75.0,70.0,29.87,South,180,6.0,6.0,84,0.00,,,0.00,TxWx,2013-10-16 05:23:00,
2013-10-16 00:24:00,75.0,70.0,29.87,SSE,157,6.0,6.0,84,0.00,,,0.00,TxWx,2013-10-16 05:24:00,
2013-10-16 00:26:00,75.0,70.0,29.87,South,180,5.0,5.0,84,0.00,,,0.00,TxWx,2013-10-16 05:26:00,
2013-10-16 00:27:00,75.0,70.0,29.87,SSE,157,4.0,5.0,84,0.00,,,0.00,TxWx,2013-10-16 05:27:00,
2013-10-16 00:28:00,75.0,70.0,29.87,South,180,2.0,3.0,84,0.00,,,0.00,TxWx,2013-10-16 05:28:00,
2013-10-16 00:30:00,75.0,70.0,29.87,South,180,5.0,5.0,84,0.00,,,0.00,TxWx,2013-10-16 05:30:00,
2013-10-16 00:31:00,75.0,70.0,29.87,SW,225,3.0,4.0,84,0.00,,,0.00,TxWx,2013-10-16 05:31:00,
2013-10-16 00:32:00,75.0,70.0,29.87,SW,225,2.0,3.0,84,0.00,,,0.00,TxWx,2013-10-16 05:32:00,
2013-10-16 00:33:00,75.0,70.0,29.87,SSW,202,6.0,6.0,84,0.00,,,0.00,TxWx,2013-10-16 05:33:00,
2013-10-16 00:35:00,75.0,70.0,29.87,SE,135,4.0,4.0,84,0.00,,,0.00,TxWx,2013-10-16 05:35:00,
2013-10-16 00:36:00,75.0,70.0,29.87,South,180,4.0,4.0,84,0.00,,,0.00,TxWx,2013-10-16 05:36:00,
2013-10-16 00:37:00,75.0,70.0,29.87,SSE,157,3.0,4.0,84,0.00,,,0.00,TxWx,2013-10-16 05:37:00,
2013-10-16 00:38:00,75.0,70.0,29.87,SE,135,3.0,3.0,84,0.00,,,0.00,TxWx,2013-10-16 05:38:00,
2013-10-16 00:39:00,75.0,70.0,29.87,South,180,4.0,5.0,84,0.00,,,0.00,TxWx,2013-10-16 05:39:00,
2013-10-16 00:40:00,75.0,70.0,29.87,SSE,157,5.0,5.0,84,0.00,,,0.00,TxWx,2013-10-16 05:40:00,
2013-10-16 00:41:00,75.0,70.0,29.87,SSW,202,3.0,4.0,84,0.00,,,0.00,TxWx,2013-10-16 05:41:00,
2013-10-16 00:42:00,75.0,70.0,29.87,South,180,5.0,5.0,85,0.00,,,0.00,TxWx,2013-10-16 05:42:00,
2013-10-16 00:43:00,75.0,70.0,29.87,South,180,5.0,5.0,85,0.00,,,0.00,TxWx,2013-10-16 05:43:00,
2013-10-16 00:45:00,75.0,70.0,29.87,SSW,202,3.0,3.0,85,0.00,,,0.00,TxWx,2013-10-16 05:45:00,
2013-10-16 00:46:00,75.0,70.0,29.87,SSE,157,3.0,3.0,85,0.00,,,0.00,TxWx,2013-10-16 05:46:00,
2013-10-16 00:47:00,75.0,70.0,29.87,SSE,157,4.0,5.0,85,0.00,,,0.00,TxWx,2013-10-16 05:47:00,
2013-10-16 00:48:00,75.0,70.0,29.87,SSE,157,3.0,4.0,85,0.00,,,0.00,TxWx,2013-10-16 05:48:00,
2013-10-16 00:49:00,75.0,70.0,29.87,SSE,157,5.0,6.0,85,0.00,,,0.00,TxWx,2013-10-16 05:49:00,
2013-10-16 00:50:00,75.0,70.0,29.87,South,180,4.0,4.0,85,0.00,,,0.00,TxWx,2013-10-16 05:50:00,
2013-10-16 00:52:00,75.0,70.0,29.87,SSE,157,2.0,2.0,85,0.00,,,0.00,TxWx,2013-10-16 05:52:00,
2013-10-16 00:53:00,75.0,70.0,29.87,SSE,157,3.0,3.0,85,0.00,,,0.00,TxWx,2013-10-16 05:53:00,
2013-10-16 00:54:00,75.0,70.0,29.87,SSE,157,2.0,3.0,85,0.00,,,0.00,TxWx,2013-10-16 05:54:00,
2013-10-16 00:55:00,75.0,70.0,29.87,SSE,157,3.0,3.0,85,0.00,,,0.00,TxWx,2013-10-16 05:55:00,
2013-10-16 00:57:00,75.0,70.0,29.87,SSE,157,3.0,4.0,85,0.00,,,0.00,TxWx,2013-10-16 05:57:00,
2013-10-16 00:58:00,75.0,70.0,29.87,SSE,157,2.0,2.0,85,0.00,,,0.00,TxWx,2013-10-16 05:58:00,
2013-10-16 00:59:00,75.0,70.0,29.87,SE,135,2.0,2.0,85,0.00,,,0.00,TxWx,2013-10-16 05:59:00,
2013-10-16 01:00:00,75.0,70.0,29.87,SSE,157,3.0,3.0,85,0.00,,,0.00,TxWx,2013-10-16 06:00:00,
2013-10-16 01:01:00,75.0,70.0,29.87,SSE,157,2.0,3.0,85,0.00,,,0.00,TxWx,2013-10-16 06:01:00,
2013-10-16 01:02:00,75.0,70.0,29.87,SSE,157,4.0,5.0,86,0.00,,,0.00,TxWx,2013-10-16 06:02:00,
2013-10-16 01:03:00,75.0,70.0,29.87,South,180,2.0,3.0,86,0.00,,,0.00,TxWx,2013-10-16 06:03:00,
2013-10-16 01:04:00,75.0,70.0,29.87,SE,135,2.0,3.0,86,0.00,,,0.00,TxWx,2013-10-16 06:04:00,
2013-10-16 01:05:00,75.0,70.0,29.87,SSE,157,2.0,3.0,86,0.00,,,0.00,TxWx,2013-10-16 06:05:00,
2013-10-16 01:06:00,75.0,70.0,29.87,SE,135,2.0,2.0,86,0.00,,,0.00,TxWx,2013-10-16 06:06:00,
2013-10-16 01:07:00,75.0,70.0,29.87,SSE,157,3.0,3.0,86,0.00,,,0.00,TxWx,2013-10-16 06:07:00,
2013-10-16 01:08:00,75.0,70.0,29.87,SE,135,2.0,2.0,86,0.00,,,0.00,TxWx,2013-10-16 06:08:00,
2013-10-16 01:09:00,75.0,70.0,29.86,SSE,157,4.0,4.0,86,0.00,,,0.00,TxWx,2013-10-16 06:09:00,
2013-10-16 01:10:00,75.0,70.0,29.87,SE,135,3.0,3.0,86,0.00,,,0.00,TxWx,2013-10-16 06:10:00,
2013-10-16 01:11:00,75.0,71.0,29.86,SE,135,3.0,4.0,86,0.00,,,0.00,TxWx,2013-10-16 06:11:00,
2013-10-16 01:12:00,75.0,71.0,29.86,SSE,157,3.0,4.0,86,0.00,,,0.00,TxWx,2013-10-16 06:12:00,
2013-10-16 01:14:00,75.0,71.0,29.86,SSE,157,3.0,4.0,86,0.00,,,0.00,TxWx,2013-10-16 06:14:00,
2013-10-16 01:15:00,75.0,71.0,29.86,SE,135,5.0,5.0,86,0.00,,,0.00,TxWx,2013-10-16 06:15:00,
2013-10-16 01:16:00,75.0,71.0,29.86,SSE,157,5.0,5.0,86,0.00,,,0.00,TxWx,2013-10-16 06:16:00,
2013-10-16 01:17:00,75.0,71.0,29.86,SSE,157,3.0,3.0,86,0.00,,,0.00,TxWx,2013-10-16 06:17:00,
2013-10-16 01:19:00,75.0,71.0,29.86,South,180,3.0,3.0,86,0.00,,,0.00,TxWx,2013-10-16 06:19:00,
2013-10-16 01:21:00,75.0,71.0,29.86,SE,135,2.0,2.0,86,0.00,,,0.00,TxWx,2013-10-16 06:21:00,
2013-10-16 01:22:00,75.0,71.0,29.86,SSE,157,3.0,3.0,87,0.00,,,0.00,TxWx,2013-10-16 06:22:00,
2013-10-16 01:24:00,75.0,71.0,29.86,SSE,157,4.0,4.0,87,0.00,,,0.00,TxWx,2013-10-16 06:24:00,
2013-10-16 01:25:00,75.0,71.0,29.86,SE,135,3.0,3.0,87,0.00,,,0.00,TxWx,2013-10-16 06:25:00,
2013-10-16 01:26:00,75.0,71.0,29.87,SSE,157,3.0,3.0,87,0.00,,,0.00,TxWx,2013-10-16 06:26:00,
2013-10-16 01:27:00,75.0,71.0,29.87,SSE,157,2.0,3.0,87,0.00,,,0.00,TxWx,2013-10-16 06:27:00,
2013-10-16 01:28:00,75.0,71.0,29.87,SSE,157,3.0,3.0,87,0.00,,,0.00,TxWx,2013-10-16 06:28:00,
2013-10-16 01:29:00,75.0,71.0,29.86,SE,135,3.0,3.0,87,0.00,,,0.00,TxWx,2013-10-16 06:29:00,
2013-10-16 01:30:00,75.0,71.0,29.86,SSE,157,3.0,3.0,87,0.00,,,0.00,TxWx,2013-10-16 06:30:00,
2013-10-16 01:32:00,75.0,71.0,29.86,SE,135,3.0,4.0,87,0.00,,,0.00,TxWx,2013-10-16 06:32:00,
2013-10-16 01:33:00,75.0,71.0,29.86,SSE,157,2.0,3.0,87,0.00,,,0.00,TxWx,2013-10-16 06:33:00,
2013-10-16 01:35:00,75.0,71.0,29.86,SSE,157,3.0,3.0,87,0.00,,,0.00,TxWx,2013-10-16 06:35:00,
2013-10-16 01:37:00,75.0,71.0,29.86,SSE,157,3.0,3.0,87,0.00,,,0.00,TxWx,2013-10-16 06:37:00,
2013-10-16 01:39:00,75.0,71.0,29.86,South,180,3.0,4.0,87,0.00,,,0.00,TxWx,2013-10-16 06:39:00,
2013-10-16 01:40:00,75.0,71.0,29.86,South,180,4.0,4.0,87,0.00,,,0.00,TxWx,2013-10-16 06:40:00,
2013-10-16 01:41:00,75.0,71.0,29.86,SSE,157,4.0,5.0,87,0.00,,,0.00,TxWx,2013-10-16 06:41:00,
2013-10-16 01:42:00,75.0,71.0,29.86,South,180,5.0,5.0,87,0.00,,,0.00,TxWx,2013-10-16 06:42:00,
2013-10-16 01:43:00,75.0,71.0,29.86,SSE,157,5.0,5.0,87,0.00,,,0.00,TxWx,2013-10-16 06:43:00,
2013-10-16 01:45:00,75.0,71.0,29.86,South,180,3.0,3.0,87,0.00,,,0.00,TxWx,2013-10-16 06:45:00,
2013-10-16 01:46:00,75.0,71.0,29.86,SSE,157,3.0,3.0,87,0.00,,,0.00,TxWx,2013-10-16 06:46:00,
2013-10-16 01:48:00,75.0,71.0,29.86,SSE,157,4.0,5.0,87,0.00,,,0.00,TxWx,2013-10-16 06:48:00,
2013-10-16 01:50:00,75.0,71.0,29.86,South,180,3.0,3.0,87,0.00,,,0.00,TxWx,2013-10-16 06:50:00,
2013-10-16 01:51:00,75.0,71.0,29.86,SSE,157,3.0,3.0,87,0.00,,,0.00,TxWx,2013-10-16 06:51:00,
2013-10-16 01:53:00,75.0,71.0,29.86,SSE,157,3.0,4.0,87,0.00,,,0.00,TxWx,2013-10-16 06:53:00,
2013-10-16 01:55:00,75.0,71.0,29.86,SSE,157,3.0,3.0,87,0.00,,,0.00,TxWx,2013-10-16 06:55:00,
2013-10-16 01:56:00,75.0,71.0,29.86,SSE,157,5.0,5.0,87,0.00,,,0.00,TxWx,2013-10-16 06:56:00,
2013-10-16 01:58:00,75.0,71.0,29.86,SSE,157,3.0,3.0,87,0.00,,,0.00,TxWx,2013-10-16 06:58:00,
2013-10-16 01:59:00,75.0,71.0,29.86,SSE,157,3.0,3.0,87,0.00,,,0.00,TxWx,2013-10-16 06:59:00,
2013-10-16 02:00:00,75.0,71.0,29.86,SSE,157,3.0,3.0,87,0.00,,,0.00,TxWx,2013-10-16 07:00:00,
2013-10-16 02:01:00,75.0,71.0,29.86,SE,135,3.0,3.0,87,0.00,,,0.00,TxWx,2013-10-16 07:01:00,
2013-10-16 02:04:00,75.0,71.0,29.86,SSE,157,3.0,3.0,87,0.00,,,0.00,TxWx,2013-10-16 07:04:00,
2013-10-16 02:05:00,75.0,71.0,29.86,SSE,157,3.0,3.0,87,0.00,,,0.00,TxWx,2013-10-16 07:05:00,
2013-10-16 02:06:00,75.0,71.0,29.86,SSE,157,2.0,3.0,87,0.00,,,0.00,TxWx,2013-10-16 07:06:00,
2013-10-16 02:09:00,75.0,71.0,29.86,SSE,157,3.0,3.0,88,0.00,,,0.00,TxWx,2013-10-16 07:09:00,
2013-10-16 02:10:00,75.0,71.0,29.86,SSE,157,4.0,4.0,88,0.00,,,0.00,TxWx,2013-10-16 07:10:00,
2013-10-16 02:11:00,75.0,71.0,29.86,SSE,157,3.0,5.0,88,0.00,,,0.00,TxWx,2013-10-16 07:11:00,
2013-10-16 02:12:00,75.0,71.0,29.85,SSE,157,4.0,4.0,88,0.00,,,0.00,TxWx,2013-10-16 07:12:00,
2013-10-16 02:14:00,75.0,71.0,29.85,South,180,4.0,5.0,88,0.00,,,0.00,TxWx,2013-10-16 07:14:00,
2013-10-16 02:15:00,75.0,71.0,29.85,SSE,157,4.0,4.0,88,0.00,,,0.00,TxWx,2013-10-16 07:15:00,
2013-10-16 02:17:00,75.0,71.0,29.86,SSE,157,3.0,3.0,88,0.00,,,0.00,TxWx,2013-10-16 07:17:00,
2013-10-16 02:19:00,75.0,71.0,29.85,South,180,5.0,5.0,88,0.00,,,0.00,TxWx,2013-10-16 07:19:00,
2013-10-16 02:20:00,75.0,71.0,29.85,South,180,3.0,4.0,88,0.00,,,0.00,TxWx,2013-10-16 07:20:00,
2013-10-16 02:21:00,75.0,71.0,29.85,SSE,157,4.0,5.0,88,0.00,,,0.00,TxWx,2013-10-16 07:21:00,
2013-10-16 02:22:00,75.0,71.0,29.85,SSE,157,2.0,2.0,88,0.00,,,0.00,TxWx,2013-10-16 07:22:00,
2013-10-16 02:23:00,75.0,71.0,29.85,South,180,3.0,4.0,88,0.00,,,0.00,TxWx,2013-10-16 07:23:00,
2013-10-16 02:25:00,75.0,71.0,29.85,South,180,4.0,4.0,88,0.00,,,0.00,TxWx,2013-10-16 07:25:00,
2013-10-16 02:26:00,75.0,71.0,29.85,South,180,4.0,4.0,88,0.00,,,0.00,TxWx,2013-10-16 07:26:00,
2013-10-16 02:27:00,75.0,71.0,29.85,SSE,157,3.0,3.0,88,0.00,,,0.00,TxWx,2013-10-16 07:27:00,
2013-10-16 02:28:00,75.0,71.0,29.85,South,180,2.0,3.0,88,0.00,,,0.00,TxWx,2013-10-16 07:28:00,
2013-10-16 02:30:00,75.0,71.0,29.85,South,180,2.0,3.0,88,0.00,,,0.00,TxWx,2013-10-16 07:30:00,
2013-10-16 02:32:00,75.0,71.0,29.86,SSW,202,2.0,2.0,88,0.00,,,0.00,TxWx,2013-10-16 07:32:00,
2013-10-16 02:33:00,75.0,71.0,29.85,South,180,3.0,3.0,88,0.00,,,0.00,TxWx,2013-10-16 07:33:00,
2013-10-16 02:35:00,75.0,71.0,29.85,South,180,3.0,3.0,88,0.00,,,0.00,TxWx,2013-10-16 07:35:00,
2013-10-16 02:37:00,75.0,71.0,29.85,South,180,3.0,3.0,88,0.00,,,0.00,TxWx,2013-10-16 07:37:00,
2013-10-16 02:38:00,75.0,71.0,29.85,SSE,157,3.0,3.0,88,0.00,,,0.00,TxWx,2013-10-16 07:38:00,
2013-10-16 02:42:00,75.0,71.0,29.85,South,180,3.0,3.0,88,0.00,,,0.00,TxWx,2013-10-16 07:42:00,
2013-10-16 02:43:00,75.0,71.0,29.85,SE,135,3.0,3.0,88,0.00,,,0.00,TxWx,2013-10-16 07:43:00,
2013-10-16 02:44:00,75.0,71.0,29.85,South,180,2.0,2.0,88,0.00,,,0.00,TxWx,2013-10-16 07:44:00,
2013-10-16 02:47:00,75.0,71.0,29.85,South,180,4.0,4.0,88,0.00,,,0.00,TxWx,2013-10-16 07:47:00,
2013-10-16 02:48:00,75.0,71.0,29.85,South,180,4.0,4.0,88,0.00,,,0.00,TxWx,2013-10-16 07:48:00,
2013-10-16 02:49:00,75.0,71.0,29.85,South,180,3.0,4.0,88,0.00,,,0.00,TxWx,2013-10-16 07:49:00,
2013-10-16 02:52:00,75.0,71.0,29.85,SSE,157,3.0,3.0,88,0.00,,,0.00,TxWx,2013-10-16 07:52:00,
2013-10-16 02:53:00,75.0,71.0,29.85,South,180,3.0,3.0,88,0.00,,,0.00,TxWx,2013-10-16 07:53:00,
2013-10-16 02:54:00,75.0,71.0,29.85,SSW,202,3.0,3.0,88,0.00,,,0.00,TxWx,2013-10-16 07:54:00,
2013-10-16 02:55:00,75.0,71.0,29.85,South,180,3.0,3.0,88,0.00,,,0.00,TxWx,2013-10-16 07:55:00,
2013-10-16 02:57:00,75.0,71.0,29.85,SSW,202,3.0,3.0,88,0.00,,,0.00,TxWx,2013-10-16 07:57:00,
2013-10-16 02:58:00,75.0,71.0,29.85,South,180,3.0,3.0,88,0.00,,,0.00,TxWx,2013-10-16 07:58:00,
2013-10-16 02:59:00,75.0,71.0,29.85,SSW,202,3.0,3.0,88,0.00,,,0.00,TxWx,2013-10-16 07:59:00,
2013-10-16 03:00:00,75.0,71.0,29.85,SSE,157,1.0,2.0,88,0.00,,,0.00,TxWx,2013-10-16 08:00:00,
2013-10-16 03:02:00,75.0,71.0,29.85,SSW,202,3.0,3.0,89,0.00,,,0.00,TxWx,2013-10-16 08:02:00,
2013-10-16 03:04:00,75.0,71.0,29.85,SSW,202,3.0,3.0,89,0.00,,,0.00,TxWx,2013-10-16 08:04:00,
2013-10-16 03:05:00,75.0,71.0,29.85,SSW,202,1.0,1.0,89,0.00,,,0.00,TxWx,2013-10-16 08:05:00,
2013-10-16 03:08:00,75.0,71.0,29.85,SW,225,2.0,3.0,89,0.00,,,0.00,TxWx,2013-10-16 08:08:00,
2013-10-16 03:09:00,75.0,71.0,29.85,SSW,202,3.0,3.0,89,0.00,,,0.00,TxWx,2013-10-16 08:09:00,
2013-10-16 03:10:00,75.0,71.0,29.85,SSW,202,2.0,2.0,89,0.00,,,0.00,TxWx,2013-10-16 08:10:00,
2013-10-16 03:11:00,75.0,71.0,29.85,SSW,202,3.0,3.0,89,0.00,,,0.00,TxWx,2013-10-16 08:11:00,
2013-10-16 03:13:00,75.0,71.0,29.85,SSW,202,2.0,3.0,89,0.00,,,0.00,TxWx,2013-10-16 08:13:00,
2013-10-16 03:15:00,75.0,71.0,29.85,WSW,247,3.0,3.0,89,0.00,,,0.00,TxWx,2013-10-16 08:15:00,
2013-10-16 03:17:00,75.0,71.0,29.85,SSW,202,1.0,2.0,89,0.00,,,0.00,TxWx,2013-10-16 08:17:00,
2013-10-16 03:18:00,75.0,71.0,29.85,SW,225,1.0,1.0,89,0.00,,,0.00,TxWx,2013-10-16 08:18:00,
2013-10-16 03:20:00,75.0,71.0,29.85,SSW,202,3.0,3.0,89,0.00,,,0.00,TxWx,2013-10-16 08:20:00,
2013-10-16 03:23:00,75.0,71.0,29.85,SSW,202,4.0,4.0,89,0.00,,,0.00,TxWx,2013-10-16 08:23:00,
2013-10-16 03:25:00,75.0,71.0,29.85,SSW,202,3.0,3.0,89,0.00,,,0.00,TxWx,2013-10-16 08:25:00,
2013-10-16 03:26:00,75.0,71.0,29.85,South,180,3.0,3.0,89,0.00,,,0.00,TxWx,2013-10-16 08:26:00,
2013-10-16 03:28:00,75.0,71.0,29.85,South,180,3.0,3.0,89,0.00,,,0.00,TxWx,2013-10-16 08:28:00,
2013-10-16 03:29:00,75.0,71.0,29.85,SSW,202,3.0,3.0,89,0.00,,,0.00,TxWx,2013-10-16 08:29:00,
2013-10-16 03:31:00,75.0,71.0,29.84,SSW,202,4.0,4.0,89,0.00,,,0.00,TxWx,2013-10-16 08:31:00,
2013-10-16 03:33:00,75.0,71.0,29.84,South,180,3.0,4.0,89,0.00,,,0.00,TxWx,2013-10-16 08:33:00,
2013-10-16 03:34:00,75.0,71.0,29.84,SSW,202,3.0,3.0,89,0.00,,,0.00,TxWx,2013-10-16 08:34:00,
2013-10-16 03:36:00,75.0,71.0,29.84,South,180,3.0,3.0,89,0.00,,,0.00,TxWx,2013-10-16 08:36:00,
2013-10-16 03:37:00,75.0,71.0,29.84,SSW,202,3.0,3.0,89,0.00,,,0.00,TxWx,2013-10-16 08:37:00,
2013-10-16 03:38:00,75.0,72.0,29.84,SSW,202,3.0,3.0,89,0.00,,,0.00,TxWx,2013-10-16 08:38:00,
2013-10-16 03:39:00,75.0,72.0,29.84,SSW,202,3.0,3.0,89,0.00,,,0.00,TxWx,2013-10-16 08:39:00,
2013-10-16 03:42:00,75.0,72.0,29.85,SSW,202,3.0,3.0,89,0.00,,,0.00,TxWx,2013-10-16 08:42:00,
2013-10-16 03:43:00,75.0,72.0,29.84,SSW,202,4.0,4.0,89,0.00,,,0.00,TxWx,2013-10-16 08:43:00,
2013-10-16 03:44:00,75.0,72.0,29.84,South,180,2.0,2.0,89,0.00,,,0.00,TxWx,2013-10-16 08:44:00,
2013-10-16 03:47:00,75.0,72.0,29.84,South,180,3.0,4.0,89,0.00,,,0.00,TxWx,2013-10-16 08:47:00,
2013-10-16 03:48:00,75.0,72.0,29.84,SSW,202,5.0,5.0,89,0.00,,,0.00,TxWx,2013-10-16 08:48:00,
2013-10-16 03:49:00,75.0,72.0,29.85,SSW,202,3.0,4.0,89,0.00,,,0.00,TxWx,2013-10-16 08:49:00,
2013-10-16 03:50:00,75.0,72.0,29.85,SSW,202,4.0,4.0,89,0.00,,,0.00,TxWx,2013-10-16 08:50:00,
2013-10-16 03:52:00,75.0,72.0,29.84,SSW,202,5.0,5.0,89,0.00,,,0.00,TxWx,2013-10-16 08:52:00,
2013-10-16 03:53:00,75.0,72.0,29.85,South,180,3.0,3.0,89,0.00,,,0.00,TxWx,2013-10-16 08:53:00,
2013-10-16 03:54:00,75.0,72.0,29.84,SSW,202,4.0,4.0,89,0.00,,,0.00,TxWx,2013-10-16 08:54:00,
2013-10-16 03:55:00,75.0,72.0,29.84,SSW,202,3.0,3.0,89,0.00,,,0.00,TxWx,2013-10-16 08:55:00,
2013-10-16 03:57:00,75.0,72.0,29.84,SSW,202,9.0,10.0,89,0.00,,,0.00,TxWx,2013-10-16 08:57:00,
2013-10-16 03:58:00,75.0,72.0,29.84,SW,225,5.0,5.0,89,0.00,,,0.00,TxWx,2013-10-16 08:58:00,
2013-10-16 04:00:00,75.0,72.0,29.84,SW,225,3.0,4.0,89,0.00,,,0.00,TxWx,2013-10-16 09:00:00,
2013-10-16 04:02:00,75.0,72.0,29.84,SSW,202,5.0,5.0,89,0.00,,,0.00,TxWx,2013-10-16 09:02:00,
2013-10-16 04:03:00,75.0,72.0,29.84,SSW,202,5.0,5.0,89,0.00,,,0.00,TxWx,2013-10-16 09:03:00,
2013-10-16 04:05:00,75.0,72.0,29.84,SW,225,6.0,6.0,89,0.00,,,0.00,TxWx,2013-10-16 09:05:00,
2013-10-16 04:06:00,75.0,72.0,29.84,SSW,202,3.0,3.0,89,0.00,,,0.00,TxWx,2013-10-16 09:06:00,
2013-10-16 04:08:00,75.0,72.0,29.84,SSE,157,5.0,5.0,89,0.00,,,0.00,TxWx,2013-10-16 09:08:00,
2013-10-16 04:09:00,75.0,72.0,29.84,SSW,202,3.0,4.0,89,0.00,,,0.00,TxWx,2013-10-16 09:09:00,
2013-10-16 04:10:00,75.0,72.0,29.84,SSW,202,4.0,4.0,89,0.00,,,0.00,TxWx,2013-10-16 09:10:00,
2013-10-16 04:12:00,75.0,72.0,29.84,SSW,202,3.0,4.0,89,0.00,,,0.00,TxWx,2013-10-16 09:12:00,
2013-10-16 04:13:00,75.0,72.0,29.84,SSW,202,5.0,5.0,89,0.00,,,0.00,TxWx,2013-10-16 09:13:00,
2013-10-16 04:14:00,75.0,72.0,29.84,SSW,202,5.0,5.0,89,0.00,,,0.00,TxWx,2013-10-16 09:14:00,
2013-10-16 04:15:00,75.0,72.0,29.84,SSW,202,5.0,5.0,89,0.00,,,0.00,TxWx,2013-10-16 09:15:00,
2013-10-16 04:18:00,75.0,72.0,29.84,SSW,202,3.0,3.0,89,0.00,,,0.00,TxWx,2013-10-16 09:18:00,
2013-10-16 04:19:00,75.0,72.0,29.84,SSW,202,3.0,3.0,89,0.00,,,0.00,TxWx,2013-10-16 09:19:00,
2013-10-16 04:21:00,74.0,71.0,29.84,SW,225,3.0,3.0,89,0.00,,,0.00,TxWx,2013-10-16 09:21:00,
2013-10-16 04:23:00,74.0,71.0,29.84,SSW,202,5.0,5.0,89,0.00,,,0.00,TxWx,2013-10-16 09:23:00,
2013-10-16 04:24:00,74.0,71.0,29.84,SW,225,3.0,4.0,90,0.00,,,0.00,TxWx,2013-10-16 09:24:00,
2013-10-16 04:25:00,74.0,71.0,29.84,SSW,202,5.0,5.0,90,0.00,,,0.00,TxWx,2013-10-16 09:25:00,
2013-10-16 04:26:00,74.0,71.0,29.84,SSW,202,5.0,5.0,90,0.00,,,0.00,TxWx,2013-10-16 09:26:00,
2013-10-16 04:29:00,74.0,71.0,29.84,SW,225,6.0,6.0,90,0.00,,,0.00,TxWx,2013-10-16 09:29:00,
2013-10-16 04:30:00,74.0,71.0,29.84,SSW,202,4.0,4.0,90,0.00,,,0.00,TxWx,2013-10-16 09:30:00,
2013-10-16 04:31:00,74.0,71.0,29.84,SW,225,4.0,4.0,90,0.00,,,0.00,TxWx,2013-10-16 09:31:00,
2013-10-16 04:34:00,74.0,71.0,29.84,SSW,202,3.0,3.0,90,0.00,,,0.00,TxWx,2013-10-16 09:34:00,
2013-10-16 04:35:00,74.0,71.0,29.84,SW,225,5.0,5.0,90,0.00,,,0.00,TxWx,2013-10-16 09:35:00,
2013-10-16 04:36:00,74.0,71.0,29.84,SW,225,5.0,5.0,90,0.00,,,0.00,TxWx,2013-10-16 09:36:00,
2013-10-16 04:39:00,74.0,71.0,29.84,SSW,202,3.0,3.0,90,0.00,,,0.00,TxWx,2013-10-16 09:39:00,
2013-10-16 04:40:00,74.0,71.0,29.84,SSW,202,5.0,5.0,90,0.00,,,0.00,TxWx,2013-10-16 09:40:00,
2013-10-16 04:41:00,74.0,71.0,29.84,SW,225,5.0,5.0,90,0.00,,,0.00,TxWx,2013-10-16 09:41:00,
2013-10-16 04:44:00,74.0,71.0,29.84,SSW,202,4.0,5.0,90,0.00,,,0.00,TxWx,2013-10-16 09:44:00,
2013-10-16 04:45:00,74.0,71.0,29.84,WSW,247,3.0,3.0,90,0.00,,,0.00,TxWx,2013-10-16 09:45:00,
2013-10-16 04:46:00,74.0,71.0,29.84,SSW,202,5.0,6.0,90,0.00,,,0.00,TxWx,2013-10-16 09:46:00,
2013-10-16 04:47:00,74.0,71.0,29.84,SW,225,4.0,4.0,90,0.00,,,0.00,TxWx,2013-10-16 09:47:00,
2013-10-16 04:48:00,74.0,71.0,29.84,SW,225,3.0,3.0,90,0.00,,,0.00,TxWx,2013-10-16 09:48:00,
2013-10-16 04:49:00,74.0,71.0,29.84,SSW,202,2.0,3.0,90,0.00,,,0.00,TxWx,2013-10-16 09:49:00,
2013-10-16 04:50:00,74.0,71.0,29.85,SW,225,3.0,3.0,90,0.00,,,0.00,TxWx,2013-10-16 09:50:00,
2013-10-16 04:51:00,74.0,71.0,29.84,SSW,202,4.0,4.0,90,0.00,,,0.00,TxWx,2013-10-16 09:51:00,
2013-10-16 04:52:00,74.0,71.0,29.84,SSW,202,3.0,3.0,90,0.00,,,0.00,TxWx,2013-10-16 09:52:00,
2013-10-16 04:54:00,74.0,71.0,29.85,SW,225,5.0,5.0,90,0.00,,,0.00,TxWx,2013-10-16 09:54:00,
2013-10-16 04:55:00,74.0,71.0,29.85,SW,225,2.0,3.0,90,0.00,,,0.00,TxWx,2013-10-16 09:55:00,
2013-10-16 04:56:00,74.0,71.0,29.85,SSW,202,5.0,6.0,90,0.00,,,0.00,TxWx,2013-10-16 09:56:00,
2013-10-16 04:57:00,74.0,71.0,29.85,SSW,202,3.0,3.0,90,0.00,,,0.00,TxWx,2013-10-16 09:57:00,
2013-10-16 04:59:00,74.0,71.0,29.85,SW,225,5.0,5.0,90,0.00,,,0.00,TxWx,2013-10-16 09:59:00,
2013-10-16 05:00:00,74.0,71.0,29.85,SW,225,3.0,3.0,90,0.00,,,0.00,TxWx,2013-10-16 10:00:00,
2013-10-16 05:01:00,74.0,71.0,29.85,SW,225,3.0,3.0,90,0.00,,,0.00,TxWx,2013-10-16 10:01:00,
2013-10-16 05:02:00,74.0,71.0,29.85,SW,225,5.0,5.0,90,0.00,,,0.00,TxWx,2013-10-16 10:02:00,
2013-10-16 05:04:00,74.0,71.0,29.85,SW,225,6.0,6.0,90,0.00,,,0.00,TxWx,2013-10-16 10:04:00,
2013-10-16 05:05:00,74.0,71.0,29.85,WSW,247,5.0,5.0,90,0.00,,,0.00,TxWx,2013-10-16 10:05:00,
2013-10-16 05:07:00,74.0,71.0,29.85,SW,225,5.0,5.0,90,0.00,,,0.00,TxWx,2013-10-16 10:07:00,
2013-10-16 05:08:00,74.0,71.0,29.85,SW,225,5.0,5.0,90,0.00,,,0.00,TxWx,2013-10-16 10:08:00,
2013-10-16 05:09:00,74.0,71.0,29.85,WSW,247,4.0,5.0,90,0.00,,,0.00,TxWx,2013-10-16 10:09:00,
2013-10-16 05:10:00,74.0,71.0,29.85,SW,225,4.0,4.0,90,0.00,,,0.00,TxWx,2013-10-16 10:10:00,
2013-10-16 05:11:00,74.0,71.0,29.85,SW,225,4.0,4.0,90,0.00,,,0.00,TxWx,2013-10-16 10:11:00,
2013-10-16 05:12:00,74.0,71.0,29.85,SW,225,4.0,5.0,90,0.00,,,0.00,TxWx,2013-10-16 10:12:00,
2013-10-16 05:13:00,74.0,71.0,29.85,SW,225,4.0,5.0,90,0.00,,,0.00,TxWx,2013-10-16 10:13:00,
2013-10-16 05:14:00,74.0,71.0,29.85,WSW,247,3.0,3.0,90,0.00,,,0.00,TxWx,2013-10-16 10:14:00,
2013-10-16 05:16:00,74.0,71.0,29.85,WSW,247,3.0,4.0,90,0.00,,,0.00,TxWx,2013-10-16 10:16:00,
2013-10-16 05:17:00,74.0,71.0,29.85,WSW,247,3.0,4.0,90,0.00,,,0.00,TxWx,2013-10-16 10:17:00,
2013-10-16 05:18:00,74.0,71.0,29.85,West,270,3.0,3.0,90,0.00,,,0.00,TxWx,2013-10-16 10:18:00,
2013-10-16 05:20:00,74.0,71.0,29.86,SW,225,3.0,3.0,90,0.00,,,0.00,TxWx,2013-10-16 10:20:00,
2013-10-16 05:21:00,74.0,71.0,29.86,SW,225,3.0,4.0,90,0.00,,,0.00,TxWx,2013-10-16 10:21:00,
2013-10-16 05:22:00,74.0,71.0,29.86,SW,225,3.0,3.0,91,0.00,,,0.00,TxWx,2013-10-16 10:22:00,
2013-10-16 05:23:00,74.0,71.0,29.85,WSW,247,3.0,3.0,91,0.00,,,0.00,TxWx,2013-10-16 10:23:00,
2013-10-16 05:25:00,74.0,71.0,29.85,SW,225,5.0,5.0,91,0.00,,,0.00,TxWx,2013-10-16 10:25:00,
2013-10-16 05:26:00,74.0,71.0,29.85,SSW,202,5.0,5.0,91,0.00,,,0.00,TxWx,2013-10-16 10:26:00,
2013-10-16 05:27:00,74.0,71.0,29.85,SW,225,5.0,5.0,91,0.00,,,0.00,TxWx,2013-10-16 10:27:00,
2013-10-16 05:28:00,74.0,71.0,29.85,SW,225,3.0,4.0,91,0.00,,,0.00,TxWx,2013-10-16 10:28:00,
2013-10-16 05:30:00,74.0,71.0,29.85,SW,225,3.0,3.0,91,0.00,,,0.00,TxWx,2013-10-16 10:30:00,
2013-10-16 05:31:00,74.0,71.0,29.85,WSW,247,3.0,3.0,91,0.00,,,0.00,TxWx,2013-10-16 10:31:00,
2013-10-16 05:32:00,74.0,71.0,29.85,SW,225,3.0,3.0,91,0.00,,,0.00,TxWx,2013-10-16 10:32:00,
2013-10-16 05:33:00,74.0,71.0,29.85,SW,225,3.0,3.0,91,0.00,,,0.00,TxWx,2013-10-16 10:33:00,
2013-10-16 05:35:00,74.0,71.0,29.85,WSW,247,3.0,3.0,91,0.00,,,0.00,TxWx,2013-10-16 10:35:00,
2013-10-16 05:37:00,74.0,71.0,29.85,WSW,247,3.0,3.0,91,0.00,,,0.00,TxWx,2013-10-16 10:37:00,
2013-10-16 05:39:00,74.0,71.0,29.85,WSW,247,3.0,3.0,91,0.00,,,0.00,TxWx,2013-10-16 10:39:00,
2013-10-16 05:41:00,74.0,71.0,29.85,SW,225,3.0,3.0,91,0.00,,,0.00,TxWx,2013-10-16 10:41:00,
2013-10-16 05:42:00,74.0,71.0,29.85,WSW,247,4.0,4.0,91,0.00,,,0.00,TxWx,2013-10-16 10:42:00,
2013-10-16 05:45:00,74.0,71.0,29.86,SW,225,3.0,3.0,91,0.00,,,0.00,TxWx,2013-10-16 10:45:00,
2013-10-16 05:46:00,74.0,71.0,29.86,West,270,2.0,3.0,91,0.00,,,0.00,TxWx,2013-10-16 10:46:00,
2013-10-16 05:47:00,74.0,71.0,29.86,WSW,247,3.0,3.0,91,0.00,,,0.00,TxWx,2013-10-16 10:47:00,
2013-10-16 05:50:00,73.0,70.0,29.86,WSW,247,3.0,3.0,91,0.00,,,0.00,TxWx,2013-10-16 10:50:00,
2013-10-16 05:51:00,73.0,70.0,29.86,West,270,3.0,3.0,91,0.00,,,0.00,TxWx,2013-10-16 10:51:00,
2013-10-16 05:52:00,73.0,70.0,29.86,WNW,292,3.0,3.0,91,0.00,,,0.00,TxWx,2013-10-16 10:52:00,
2013-10-16 05:54:00,73.0,70.0,29.86,West,270,4.0,5.0,91,0.00,,,0.00,TxWx,2013-10-16 10:54:00,
2013-10-16 05:55:00,73.0,70.0,29.86,West,270,3.0,3.0,92,0.00,,,0.00,TxWx,2013-10-16 10:55:00,
2013-10-16 05:56:00,73.0,70.0,29.86,WSW,247,3.0,4.0,92,0.00,,,0.00,TxWx,2013-10-16 10:56:00,
2013-10-16 05:57:00,73.0,70.0,29.86,WSW,247,3.0,3.0,92,0.00,,,0.00,TxWx,2013-10-16 10:57:00,
2013-10-16 05:58:00,73.0,70.0,29.86,SW,225,3.0,3.0,92,0.00,,,0.00,TxWx,2013-10-16 10:58:00,
2013-10-16 05:59:00,73.0,70.0,29.86,WSW,247,3.0,3.0,92,0.00,,,0.00,TxWx,2013-10-16 10:59:00,
2013-10-16 06:00:00,73.0,70.0,29.86,WSW,247,3.0,3.0,92,0.00,,,0.00,TxWx,2013-10-16 11:00:00,
2013-10-16 06:02:00,73.0,70.0,29.86,SW,225,2.0,3.0,92,0.00,,,0.00,TxWx,2013-10-16 11:02:00,
2013-10-16 06:03:00,73.0,71.0,29.86,SW,225,3.0,3.0,92,0.00,,,0.00,TxWx,2013-10-16 11:03:00,
2013-10-16 06:05:00,73.0,71.0,29.86,WSW,247,3.0,3.0,92,0.00,,,0.00,TxWx,2013-10-16 11:05:00,
2013-10-16 06:07:00,73.0,71.0,29.86,WSW,247,4.0,4.0,92,0.00,,,0.00,TxWx,2013-10-16 11:07:00,
2013-10-16 06:08:00,73.0,71.0,29.86,WSW,247,5.0,5.0,92,0.00,,,0.00,TxWx,2013-10-16 11:08:00,
2013-10-16 06:10:00,73.0,71.0,29.86,West,270,3.0,3.0,92,0.00,,,0.00,TxWx,2013-10-16 11:10:00,
2013-10-16 06:12:00,73.0,71.0,29.86,WSW,247,3.0,3.0,93,0.00,,,0.00,TxWx,2013-10-16 11:12:00,
2013-10-16 06:13:00,73.0,71.0,29.86,West,270,3.0,3.0,93,0.00,,,0.00,TxWx,2013-10-16 11:13:00,
2013-10-16 06:16:00,73.0,71.0,29.87,WSW,247,3.0,3.0,93,0.00,,,0.00,TxWx,2013-10-16 11:16:00,
2013-10-16 06:17:00,73.0,71.0,29.87,West,270,2.0,3.0,93,0.00,,,0.00,TxWx,2013-10-16 11:17:00,
2013-10-16 06:18:00,73.0,71.0,29.86,WSW,247,3.0,3.0,93,0.00,,,0.00,TxWx,2013-10-16 11:18:00,
2013-10-16 06:19:00,73.0,71.0,29.87,West,270,1.0,2.0,93,0.00,,,0.00,TxWx,2013-10-16 11:19:00,
2013-10-16 06:21:00,73.0,71.0,29.86,West,270,2.0,2.0,93,0.00,,,0.00,TxWx,2013-10-16 11:21:00,
2013-10-16 06:23:00,73.0,71.0,29.87,West,270,3.0,3.0,93,0.00,,,0.00,TxWx,2013-10-16 11:23:00,
2013-10-16 06:25:00,73.0,71.0,29.87,West,270,3.0,3.0,93,0.00,,,0.00,TxWx,2013-10-16 11:25:00,
2013-10-16 06:26:00,73.0,71.0,29.87,WSW,247,3.0,3.0,93,0.00,,,0.00,TxWx,2013-10-16 11:26:00,
2013-10-16 06:28:00,73.0,71.0,29.87,West,270,3.0,3.0,93,0.00,,,0.00,TxWx,2013-10-16 11:28:00,
2013-10-16 06:29:00,73.0,71.0,29.87,West,270,3.0,3.0,93,0.00,,,0.00,TxWx,2013-10-16 11:29:00,
2013-10-16 06:30:00,73.0,71.0,29.87,West,270,3.0,3.0,93,0.00,,,0.00,TxWx,2013-10-16 11:30:00,
2013-10-16 06:31:00,73.0,71.0,29.87,WSW,247,3.0,3.0,93,0.00,,,0.00,TxWx,2013-10-16 11:31:00,
2013-10-16 06:34:00,73.0,71.0,29.87,WSW,247,2.0,3.0,93,0.00,,,0.00,TxWx,2013-10-16 11:34:00,
2013-10-16 06:35:00,73.0,71.0,29.87,West,270,1.0,1.0,93,0.00,,,0.00,TxWx,2013-10-16 11:35:00,
2013-10-16 06:36:00,73.0,71.0,29.87,WSW,247,2.0,2.0,93,0.00,,,0.00,TxWx,2013-10-16 11:36:00,
2013-10-16 06:39:00,72.0,70.0,29.87,WSW,247,1.0,2.0,93,0.00,,,0.00,TxWx,2013-10-16 11:39:00,
2013-10-16 06:40:00,72.0,70.0,29.87,WSW,247,1.0,2.0,93,0.00,,,0.00,TxWx,2013-10-16 11:40:00,
2013-10-16 06:42:00,72.0,70.0,29.87,West,270,1.0,1.0,93,0.00,,,0.00,TxWx,2013-10-16 11:42:00,
2013-10-16 06:44:00,72.0,70.0,29.87,WSW,247,2.0,2.0,93,0.00,,,0.00,TxWx,2013-10-16 11:44:00,
2013-10-16 06:45:00,72.0,70.0,29.87,WSW,247,1.0,1.0,93,0.00,,,0.00,TxWx,2013-10-16 11:45:00,
2013-10-16 06:46:00,72.0,70.0,29.87,West,270,1.0,1.0,93,0.00,,,0.00,TxWx,2013-10-16 11:46:00,
2013-10-16 06:47:00,72.0,70.0,29.87,West,270,1.0,1.0,93,0.00,,,0.00,TxWx,2013-10-16 11:47:00,
2013-10-16 06:49:00,72.0,70.0,29.87,West,270,1.0,1.0,93,0.00,,,0.00,TxWx,2013-10-16 11:49:00,
2013-10-16 06:50:00,72.0,70.0,29.87,WSW,247,1.0,1.0,93,0.00,,,0.00,TxWx,2013-10-16 11:50:00,
2013-10-16 06:51:00,72.0,70.0,29.87,WSW,247,1.0,1.0,93,0.00,,,0.00,TxWx,2013-10-16 11:51:00,
2013-10-16 06:52:00,72.0,70.0,29.87,West,270,1.0,1.0,93,0.00,,,0.00,TxWx,2013-10-16 11:52:00,
2013-10-16 06:54:00,72.0,70.0,29.87,West,270,1.0,2.0,93,0.00,,,0.00,TxWx,2013-10-16 11:54:00,
2013-10-16 06:56:00,72.0,70.0,29.87,WSW,247,1.0,1.0,93,0.00,,,0.00,TxWx,2013-10-16 11:56:00,
2013-10-16 06:57:00,72.0,70.0,29.87,West,270,1.0,1.0,93,0.00,,,0.00,TxWx,2013-10-16 11:57:00,
2013-10-16 06:59:00,72.0,70.0,29.86,WSW,247,1.0,1.0,94,0.00,,,0.00,TxWx,2013-10-16 11:59:00,
2013-10-16 07:01:00,72.0,70.0,29.86,SW,225,1.0,2.0,94,0.00,,,0.00,TxWx,2013-10-16 12:01:00,
2013-10-16 07:02:00,72.0,70.0,29.86,SSW,202,2.0,2.0,94,0.00,,,0.00,TxWx,2013-10-16 12:02:00,
2013-10-16 07:04:00,72.0,70.0,29.86,SW,225,2.0,2.0,94,0.00,,,0.00,TxWx,2013-10-16 12:04:00,
2013-10-16 07:05:00,72.0,70.0,29.86,SSW,202,2.0,2.0,94,0.00,,,0.00,TxWx,2013-10-16 12:05:00,
2013-10-16 07:06:00,72.0,70.0,29.86,SW,225,2.0,2.0,94,0.00,,,0.00,TxWx,2013-10-16 12:06:00,
2013-10-16 07:07:00,72.0,70.0,29.86,SW,225,2.0,2.0,94,0.00,,,0.00,TxWx,2013-10-16 12:07:00,
2013-10-16 07:08:00,72.0,70.0,29.86,SW,225,1.0,2.0,94,0.00,,,0.00,TxWx,2013-10-16 12:08:00,
2013-10-16 07:10:00,72.0,70.0,29.86,SSW,202,2.0,2.0,94,0.00,,,0.00,TxWx,2013-10-16 12:10:00,
2013-10-16 07:11:00,72.0,70.0,29.86,SSW,202,1.0,2.0,94,0.00,,,0.00,TxWx,2013-10-16 12:11:00,
2013-10-16 07:13:00,72.0,70.0,29.86,SSW,202,2.0,2.0,94,0.00,,,0.00,TxWx,2013-10-16 12:13:00,
2013-10-16 07:14:00,72.0,70.0,29.86,SSW,202,3.0,3.0,94,0.00,,,0.00,TxWx,2013-10-16 12:14:00,
2013-10-16 07:15:00,72.0,70.0,29.86,SSW,202,2.0,3.0,94,0.00,,,0.00,TxWx,2013-10-16 12:15:00,
2013-10-16 07:16:00,72.0,70.0,29.86,SSW,202,3.0,3.0,94,0.00,,,0.00,TxWx,2013-10-16 12:16:00,
2013-10-16 07:18:00,72.0,70.0,29.86,SSW,202,3.0,3.0,94,0.00,,,0.00,TxWx,2013-10-16 12:18:00,
2013-10-16 07:19:00,72.0,70.0,29.86,SSW,202,3.0,3.0,94,0.00,,,0.00,TxWx,2013-10-16 12:19:00,
2013-10-16 07:20:00,72.0,70.0,29.86,SW,225,4.0,4.0,94,0.00,,,0.00,TxWx,2013-10-16 12:20:00,
2013-10-16 07:21:00,72.0,70.0,29.86,SW,225,3.0,3.0,94,0.00,,,0.00,TxWx,2013-10-16 12:21:00,
2013-10-16 07:22:00,72.0,70.0,29.86,SW,225,2.0,3.0,94,0.00,,,0.00,TxWx,2013-10-16 12:22:00,
2013-10-16 07:23:00,72.0,70.0,29.86,South,180,3.0,3.0,94,0.00,,,0.00,TxWx,2013-10-16 12:23:00,
2013-10-16 07:24:00,72.0,70.0,29.86,SW,225,3.0,3.0,94,0.00,,,0.00,TxWx,2013-10-16 12:24:00,
2013-10-16 07:25:00,72.0,70.0,29.86,SSW,202,3.0,3.0,94,0.00,,,0.00,TxWx,2013-10-16 12:25:00,
2013-10-16 07:26:00,72.0,70.0,29.86,WSW,247,2.0,3.0,94,0.00,,,0.00,TxWx,2013-10-16 12:26:00,
2013-10-16 07:27:00,72.0,70.0,29.86,SSW,202,3.0,3.0,94,0.00,,,0.00,TxWx,2013-10-16 12:27:00,
2013-10-16 07:28:00,72.0,70.0,29.86,SSW,202,3.0,3.0,95,0.00,,,0.00,TxWx,2013-10-16 12:28:00,
2013-10-16 07:29:00,72.0,70.0,29.86,SSW,202,3.0,3.0,95,0.00,,,0.00,TxWx,2013-10-16 12:29:00,
2013-10-16 07:30:00,72.0,70.0,29.86,SSW,202,3.0,3.0,95,0.00,,,0.00,TxWx,2013-10-16 12:30:00,
2013-10-16 07:31:00,72.0,70.0,29.86,SW,225,3.0,3.0,95,0.00,,,0.00,TxWx,2013-10-16 12:31:00,
2013-10-16 07:32:00,72.0,70.0,29.86,SW,225,3.0,3.0,95,0.00,,,0.00,TxWx,2013-10-16 12:32:00,
2013-10-16 07:33:00,72.0,70.0,29.87,SW,225,3.0,3.0,95,0.00,,,0.00,TxWx,2013-10-16 12:33:00,
2013-10-16 07:34:00,72.0,70.0,29.87,SW,225,2.0,2.0,95,0.00,,,0.00,TxWx,2013-10-16 12:34:00,
2013-10-16 07:35:00,72.0,70.0,29.87,SW,225,3.0,3.0,95,0.00,,,0.00,TxWx,2013-10-16 12:35:00,
2013-10-16 07:36:00,72.0,70.0,29.87,SW,225,3.0,3.0,95,0.00,,,0.00,TxWx,2013-10-16 12:36:00,
2013-10-16 07:37:00,72.0,70.0,29.87,SW,225,2.0,3.0,95,0.00,,,0.00,TxWx,2013-10-16 12:37:00,
2013-10-16 07:38:00,72.0,70.0,29.87,WSW,247,2.0,3.0,95,0.00,,,0.00,TxWx,2013-10-16 12:38:00,
2013-10-16 07:40:00,72.0,70.0,29.87,SW,225,3.0,3.0,95,0.00,,,0.00,TxWx,2013-10-16 12:40:00,
2013-10-16 07:41:00,72.0,70.0,29.87,SW,225,3.0,3.0,95,0.00,,,0.00,TxWx,2013-10-16 12:41:00,
2013-10-16 07:42:00,72.0,70.0,29.87,WSW,247,3.0,3.0,95,0.00,,,0.00,TxWx,2013-10-16 12:42:00,
2013-10-16 07:44:00,72.0,70.0,29.86,WSW,247,2.0,3.0,95,0.00,,,0.00,TxWx,2013-10-16 12:44:00,
2013-10-16 07:45:00,72.0,70.0,29.87,WSW,247,2.0,3.0,95,0.00,,,0.00,TxWx,2013-10-16 12:45:00,
2013-10-16 07:46:00,72.0,70.0,29.87,WSW,247,3.0,3.0,95,0.00,,,0.00,TxWx,2013-10-16 12:46:00,
2013-10-16 07:47:00,72.0,70.0,29.87,SW,225,3.0,3.0,95,0.00,,,0.00,TxWx,2013-10-16 12:47:00,
2013-10-16 07:48:00,72.0,70.0,29.87,WSW,247,3.0,3.0,95,0.00,,,0.00,TxWx,2013-10-16 12:48:00,
2013-10-16 07:49:00,72.0,70.0,29.87,SW,225,3.0,3.0,95,0.00,,,0.00,TxWx,2013-10-16 12:49:00,
2013-10-16 07:50:00,72.0,70.0,29.87,SW,225,3.0,3.0,95,0.00,,,0.00,TxWx,2013-10-16 12:50:00,
2013-10-16 07:51:00,72.0,70.0,29.87,SW,225,3.0,3.0,95,0.00,,,0.00,TxWx,2013-10-16 12:51:00,
2013-10-16 07:52:00,72.0,70.0,29.87,SSW,202,3.0,3.0,95,0.00,,,0.00,TxWx,2013-10-16 12:52:00,
2013-10-16 07:54:00,72.0,70.0,29.87,SSW,202,4.0,4.0,95,0.00,,,0.00,TxWx,2013-10-16 12:54:00,
2013-10-16 07:55:00,72.0,70.0,29.87,SSW,202,4.0,4.0,95,0.00,,,0.00,TxWx,2013-10-16 12:55:00,
2013-10-16 07:56:00,72.0,70.0,29.87,SSW,202,3.0,4.0,95,0.00,,,0.00,TxWx,2013-10-16 12:56:00,
2013-10-16 07:57:00,72.0,70.0,29.87,SSW,202,4.0,5.0,95,0.00,,,0.00,TxWx,2013-10-16 12:57:00,
2013-10-16 08:00:00,72.0,70.0,29.87,SSW,202,3.0,3.0,95,0.00,,,0.00,TxWx,2013-10-16 13:00:00,
2013-10-16 08:01:00,72.0,70.0,29.87,SSW,202,3.0,4.0,95,0.00,,,0.00,TxWx,2013-10-16 13:01:00,
2013-10-16 08:02:00,72.0,70.0,29.87,South,180,3.0,4.0,95,0.00,,,0.00,TxWx,2013-10-16 13:02:00,
2013-10-16 08:05:00,73.0,71.0,29.87,SSW,202,3.0,4.0,95,0.00,,,0.00,TxWx,2013-10-16 13:05:00,
2013-10-16 08:06:00,73.0,71.0,29.87,SW,225,4.0,4.0,95,0.00,,,0.00,TxWx,2013-10-16 13:06:00,
2013-10-16 08:07:00,73.0,71.0,29.87,SSW,202,5.0,5.0,95,0.00,,,0.00,TxWx,2013-10-16 13:07:00,
2013-10-16 08:08:00,73.0,71.0,29.87,SSW,202,4.0,4.0,95,0.00,,,0.00,TxWx,2013-10-16 13:08:00,
2013-10-16 08:10:00,73.0,71.0,29.87,SW,225,3.0,4.0,95,0.00,,,0.00,TxWx,2013-10-16 13:10:00,
2013-10-16 08:11:00,73.0,71.0,29.87,SW,225,3.0,3.0,95,0.00,,,0.00,TxWx,2013-10-16 13:11:00,
2013-10-16 08:12:00,73.0,71.0,29.87,SW,225,3.0,3.0,95,0.00,,,0.00,TxWx,2013-10-16 13:12:00,
2013-10-16 08:13:00,73.0,71.0,29.88,SW,225,4.0,4.0,95,0.00,,,0.00,TxWx,2013-10-16 13:13:00,
2013-10-16 08:14:00,73.0,71.0,29.87,SSW,202,3.0,3.0,95,0.00,,,0.00,TxWx,2013-10-16 13:14:00,
2013-10-16 08:15:00,73.0,71.0,29.88,SSW,202,5.0,5.0,95,0.00,,,0.00,TxWx,2013-10-16 13:15:00,
2013-10-16 08:16:00,73.0,71.0,29.88,SW,225,5.0,5.0,95,0.00,,,0.00,TxWx,2013-10-16 13:16:00,
2013-10-16 08:17:00,73.0,71.0,29.88,SW,225,3.0,3.0,95,0.00,,,0.00,TxWx,2013-10-16 13:17:00,
2013-10-16 08:19:00,73.0,71.0,29.88,SSW,202,5.0,6.0,95,0.00,,,0.00,TxWx,2013-10-16 13:19:00,
2013-10-16 08:20:00,73.0,71.0,29.88,SW,225,4.0,4.0,95,0.00,,,0.00,TxWx,2013-10-16 13:20:00,
2013-10-16 08:21:00,73.0,71.0,29.88,SW,225,5.0,5.0,95,0.00,,,0.00,TxWx,2013-10-16 13:21:00,
2013-10-16 08:22:00,73.0,71.0,29.88,WSW,247,5.0,5.0,94,0.00,,,0.00,TxWx,2013-10-16 13:22:00,
2013-10-16 08:24:00,73.0,71.0,29.89,WSW,247,4.0,4.0,94,0.00,,,0.00,TxWx,2013-10-16 13:24:00,
2013-10-16 08:26:00,73.0,71.0,29.89,SSW,202,3.0,3.0,94,0.00,,,0.00,TxWx,2013-10-16 13:26:00,
2013-10-16 08:27:00,73.0,71.0,29.89,WSW,247,3.0,3.0,94,0.00,,,0.00,TxWx,2013-10-16 13:27:00,
2013-10-16 08:29:00,73.0,71.0,29.89,WSW,247,3.0,3.0,94,0.00,,,0.00,TxWx,2013-10-16 13:29:00,
2013-10-16 08:31:00,73.0,71.0,29.89,SW,225,5.0,5.0,94,0.00,,,0.00,TxWx,2013-10-16 13:31:00,
2013-10-16 08:32:00,73.0,71.0,29.89,SW,225,4.0,5.0,94,0.00,,,0.00,TxWx,2013-10-16 13:32:00,
2013-10-16 08:34:00,73.0,71.0,29.89,WSW,247,5.0,5.0,94,0.00,,,0.00,TxWx,2013-10-16 13:34:00,
2013-10-16 08:36:00,73.0,71.0,29.89,SW,225,5.0,5.0,94,0.00,,,0.00,TxWx,2013-10-16 13:36:00,
2013-10-16 08:37:00,73.0,71.0,29.89,WSW,247,4.0,4.0,94,0.00,,,0.00,TxWx,2013-10-16 13:37:00,
2013-10-16 08:40:00,74.0,72.0,29.89,WSW,247,5.0,5.0,94,0.00,,,0.00,TxWx,2013-10-16 13:40:00,
2013-10-16 08:41:00,74.0,72.0,29.89,SSW,202,6.0,6.0,94,0.00,,,0.00,TxWx,2013-10-16 13:41:00,
2013-10-16 08:42:00,74.0,72.0,29.89,SW,225,3.0,4.0,94,0.00,,,0.00,TxWx,2013-10-16 13:42:00,
2013-10-16 08:45:00,74.0,72.0,29.90,SW,225,4.0,5.0,93,0.00,,,0.00,TxWx,2013-10-16 13:45:00,
2013-10-16 08:46:00,74.0,72.0,29.90,SSW,202,5.0,5.0,93,0.00,,,0.00,TxWx,2013-10-16 13:46:00,
2013-10-16 08:47:00,74.0,72.0,29.90,SW,225,6.0,6.0,93,0.00,,,0.00,TxWx,2013-10-16 13:47:00,
2013-10-16 08:48:00,74.0,72.0,29.90,WSW,247,5.0,6.0,93,0.00,,,0.00,TxWx,2013-10-16 13:48:00,
2013-10-16 08:50:00,74.0,72.0,29.90,SSW,202,5.0,5.0,93,0.00,,,0.00,TxWx,2013-10-16 13:50:00,
2013-10-16 08:51:00,74.0,72.0,29.90,SSW,202,5.0,5.0,93,0.00,,,0.00,TxWx,2013-10-16 13:51:00,
2013-10-16 08:52:00,74.0,72.0,29.90,SW,225,5.0,5.0,93,0.00,,,0.00,TxWx,2013-10-16 13:52:00,
2013-10-16 08:53:00,74.0,72.0,29.90,SW,225,4.0,4.0,93,0.00,,,0.00,TxWx,2013-10-16 13:53:00,
2013-10-16 08:56:00,74.0,72.0,29.90,SW,225,5.0,5.0,93,0.00,,,0.00,TxWx,2013-10-16 13:56:00,
2013-10-16 08:57:00,74.0,72.0,29.90,West,270,5.0,5.0,93,0.00,,,0.00,TxWx,2013-10-16 13:57:00,
2013-10-16 08:58:00,74.0,72.0,29.90,WSW,247,3.0,4.0,93,0.00,,,0.00,TxWx,2013-10-16 13:58:00,
2013-10-16 08:59:00,74.0,72.0,29.90,SSW,202,3.0,4.0,93,0.00,,,0.00,TxWx,2013-10-16 13:59:00,
2013-10-16 09:01:00,74.0,72.0,29.90,WSW,247,3.0,4.0,93,0.00,,,0.00,TxWx,2013-10-16 14:01:00,
2013-10-16 09:02:00,74.0,72.0,29.90,SSW,202,3.0,3.0,93,0.00,,,0.00,TxWx,2013-10-16 14:02:00,
2013-10-16 09:03:00,74.0,72.0,29.90,SW,225,5.0,5.0,92,0.00,,,0.00,TxWx,2013-10-16 14:03:00,
2013-10-16 09:04:00,74.0,72.0,29.90,WSW,247,4.0,4.0,92,0.00,,,0.00,TxWx,2013-10-16 14:04:00,
2013-10-16 09:06:00,75.0,73.0,29.90,SW,225,3.0,3.0,92,0.00,,,0.00,TxWx,2013-10-16 14:06:00,
2013-10-16 09:08:00,75.0,73.0,29.91,WSW,247,3.0,3.0,92,0.00,,,0.00,TxWx,2013-10-16 14:08:00,
2013-10-16 09:09:00,75.0,73.0,29.90,SW,225,4.0,5.0,92,0.00,,,0.00,TxWx,2013-10-16 14:09:00,
2013-10-16 09:12:00,75.0,72.0,29.90,SW,225,5.0,5.0,92,0.00,,,0.00,TxWx,2013-10-16 14:12:00,
2013-10-16 09:13:00,75.0,72.0,29.90,SW,225,3.0,4.0,92,0.00,,,0.00,TxWx,2013-10-16 14:13:00,
2013-10-16 09:14:00,75.0,72.0,29.91,WSW,247,5.0,6.0,92,0.00,,,0.00,TxWx,2013-10-16 14:14:00,
2013-10-16 09:17:00,75.0,72.0,29.91,WSW,247,4.0,5.0,91,0.00,,,0.00,TxWx,2013-10-16 14:17:00,
2013-10-16 09:19:00,75.0,72.0,29.91,WNW,292,1.0,1.0,91,0.00,,,0.00,TxWx,2013-10-16 14:19:00,
2013-10-16 09:20:00,75.0,72.0,29.91,West,270,3.0,3.0,91,0.00,,,0.00,TxWx,2013-10-16 14:20:00,
2013-10-16 09:23:00,75.0,72.0,29.91,NW,315,3.0,3.0,91,0.00,,,0.00,TxWx,2013-10-16 14:23:00,
2013-10-16 09:24:00,75.0,72.0,29.91,WSW,247,3.0,3.0,91,0.00,,,0.00,TxWx,2013-10-16 14:24:00,
2013-10-16 09:25:00,75.0,72.0,29.91,NW,315,3.0,4.0,91,0.00,,,0.00,TxWx,2013-10-16 14:25:00,
2013-10-16 09:28:00,75.0,72.0,29.91,NW,315,3.0,3.0,91,0.00,,,0.00,TxWx,2013-10-16 14:28:00,
2013-10-16 09:29:00,75.0,72.0,29.91,NW,315,5.0,6.0,91,0.00,,,0.00,TxWx,2013-10-16 14:29:00,
2013-10-16 09:30:00,75.0,72.0,29.92,NW,315,3.0,4.0,91,0.00,,,0.00,TxWx,2013-10-16 14:30:00,
2013-10-16 09:31:00,75.0,72.0,29.92,NNW,337,4.0,5.0,91,0.00,,,0.00,TxWx,2013-10-16 14:31:00,
2013-10-16 09:34:00,75.0,72.0,29.92,NE,45,2.0,2.0,91,0.00,,,0.00,TxWx,2013-10-16 14:34:00,
2013-10-16 09:35:00,76.0,73.0,29.92,North,0,3.0,3.0,91,0.00,,,0.00,TxWx,2013-10-16 14:35:00,
2013-10-16 09:36:00,75.0,73.0,29.92,NNE,22,4.0,4.0,91,0.00,,,0.00,TxWx,2013-10-16 14:36:00,
2013-10-16 09:37:00,75.0,72.0,29.92,North,0,4.0,4.0,91,0.00,,,0.00,TxWx,2013-10-16 14:37:00,
2013-10-16 09:39:00,73.0,69.0,29.92,North,0,11.0,11.0,87,0.00,,,0.00,TxWx,2013-10-16 14:39:00,
2013-10-16 09:40:00,73.0,69.0,29.93,NNW,337,8.0,13.0,87,0.00,,,0.00,TxWx,2013-10-16 14:40:00,
2013-10-16 09:42:00,71.0,67.0,29.93,NNE,22,8.0,13.0,87,0.00,,,0.00,TxWx,2013-10-16 14:42:00,
2013-10-16 09:44:00,70.0,66.0,29.93,NNE,22,11.0,11.0,88,0.00,,,0.00,TxWx,2013-10-16 14:44:00,
2013-10-16 09:45:00,70.0,66.0,29.93,North,0,18.0,18.0,89,0.00,,,0.00,TxWx,2013-10-16 14:45:00,
2013-10-16 09:47:00,69.0,66.0,29.93,North,0,14.0,14.0,90,0.00,,,0.00,TxWx,2013-10-16 14:47:00,
2013-10-16 09:48:00,68.0,65.0,29.93,NE,45,16.0,16.0,90,0.00,,,0.00,TxWx,2013-10-16 14:48:00,
2013-10-16 09:49:00,68.0,65.0,29.93,NNE,22,11.0,11.0,91,0.00,,,0.00,TxWx,2013-10-16 14:49:00,
2013-10-16 09:50:00,68.0,65.0,29.93,ENE,67,8.0,10.0,91,0.00,,,0.00,TxWx,2013-10-16 14:50:00,
2013-10-16 09:52:00,68.0,66.0,29.93,West,270,6.0,6.0,92,0.00,,,0.00,TxWx,2013-10-16 14:52:00,
2013-10-16 09:53:00,68.0,66.0,29.93,NNW,337,8.0,10.0,92,0.00,,,0.00,TxWx,2013-10-16 14:53:00,
2013-10-16 09:55:00,68.0,66.0,29.93,NE,45,11.0,13.0,93,0.00,,,0.00,TxWx,2013-10-16 14:55:00,
2013-10-16 09:56:00,68.0,66.0,29.93,NNW,337,5.0,6.0,93,0.00,,,0.00,TxWx,2013-10-16 14:56:00,
2013-10-16 09:57:00,68.0,66.0,29.93,NNE,22,11.0,12.0,93,0.00,,,0.00,TxWx,2013-10-16 14:57:00,
2013-10-16 09:59:00,68.0,66.0,29.93,NNE,22,13.0,13.0,93,0.00,,,0.00,TxWx,2013-10-16 14:59:00,
2013-10-16 10:00:00,68.0,66.0,29.93,NE,45,8.0,8.0,94,0.00,,,0.00,TxWx,2013-10-16 15:00:00,
2013-10-16 10:01:00,68.0,66.0,29.93,NNE,22,6.0,6.0,94,0.00,,,0.00,TxWx,2013-10-16 15:01:00,
2013-10-16 10:03:00,67.0,65.0,29.93,NNW,337,9.0,10.0,94,0.00,,,0.00,TxWx,2013-10-16 15:03:00,
2013-10-16 10:05:00,67.0,65.0,29.93,NE,45,8.0,10.0,94,0.00,,,0.00,TxWx,2013-10-16 15:05:00,
2013-10-16 10:06:00,67.0,65.0,29.93,NNE,22,13.0,13.0,94,0.00,,,0.00,TxWx,2013-10-16 15:06:00,
2013-10-16 10:08:00,67.0,65.0,29.94,NNW,337,9.0,10.0,94,0.00,,,0.00,TxWx,2013-10-16 15:08:00,
2013-10-16 10:10:00,67.0,65.0,29.94,NNE,22,12.0,13.0,94,0.00,,,0.00,TxWx,2013-10-16 15:10:00,
2013-10-16 10:11:00,67.0,65.0,29.94,North,0,12.0,13.0,94,0.00,,,0.00,TxWx,2013-10-16 15:11:00,
2013-10-16 10:12:00,67.0,65.0,29.94,NNE,22,13.0,14.0,94,0.00,,,0.00,TxWx,2013-10-16 15:12:00,
2013-10-16 10:13:00,67.0,65.0,29.94,NE,45,14.0,14.0,94,0.00,,,0.00,TxWx,2013-10-16 15:13:00,
2013-10-16 10:16:00,67.0,65.0,29.94,NNE,22,10.0,10.0,94,0.00,,,0.00,TxWx,2013-10-16 15:16:00,
2013-10-16 10:18:00,67.0,65.0,29.94,North,0,10.0,10.0,95,0.00,,,0.00,TxWx,2013-10-16 15:18:00,
2013-10-16 10:19:00,67.0,65.0,29.94,North,0,8.0,10.0,94,0.00,,,0.00,TxWx,2013-10-16 15:19:00,
2013-10-16 10:21:00,67.0,65.0,29.94,NE,45,6.0,6.0,94,0.00,,,0.00,TxWx,2013-10-16 15:21:00,
2013-10-16 10:22:00,67.0,65.0,29.94,NNE,22,8.0,8.0,94,0.00,,,0.00,TxWx,2013-10-16 15:22:00,
2013-10-16 10:23:00,67.0,65.0,29.94,North,0,8.0,10.0,94,0.00,,,0.00,TxWx,2013-10-16 15:23:00,
2013-10-16 10:25:00,66.0,64.0,29.94,NNE,22,14.0,14.0,94,0.00,,,0.00,TxWx,2013-10-16 15:25:00,
2013-10-16 10:26:00,66.0,64.0,29.94,NNE,22,15.0,15.0,94,0.00,,,0.00,TxWx,2013-10-16 15:26:00,
2013-10-16 10:27:00,66.0,64.0,29.94,NNE,22,11.0,11.0,94,0.00,,,0.00,TxWx,2013-10-16 15:27:00,
2013-10-16 10:28:00,66.0,64.0,29.94,NNW,337,8.0,10.0,94,0.00,,,0.00,TxWx,2013-10-16 15:28:00,
2013-10-16 10:30:00,67.0,65.0,29.94,NNE,22,10.0,11.0,94,0.00,,,0.00,TxWx,2013-10-16 15:30:00,
2013-10-16 10:31:00,67.0,65.0,29.94,NNE,22,11.0,11.0,94,0.00,,,0.00,TxWx,2013-10-16 15:31:00,
2013-10-16 10:32:00,67.0,65.0,29.94,NNE,22,10.0,12.0,94,0.00,,,0.00,TxWx,2013-10-16 15:32:00,
2013-10-16 10:33:00,67.0,65.0,29.94,NNW,337,6.0,7.0,94,0.00,,,0.00,TxWx,2013-10-16 15:33:00,
2013-10-16 10:35:00,67.0,65.0,29.94,NNE,22,6.0,6.0,94,0.00,,,0.00,TxWx,2013-10-16 15:35:00,
2013-10-16 10:36:00,67.0,65.0,29.94,ENE,67,6.0,7.0,94,0.00,,,0.00,TxWx,2013-10-16 15:36:00,
2013-10-16 10:37:00,67.0,65.0,29.94,NNW,337,5.0,5.0,94,0.00,,,0.00,TxWx,2013-10-16 15:37:00,
2013-10-16 10:38:00,67.0,65.0,29.94,NE,45,9.0,9.0,94,0.00,,,0.00,TxWx,2013-10-16 15:38:00,
2013-10-16 10:41:00,67.0,65.0,29.94,North,0,4.0,4.0,93,0.00,,,0.00,TxWx,2013-10-16 15:41:00,
2013-10-16 10:42:00,67.0,65.0,29.94,NNE,22,15.0,15.0,93,0.00,,,0.00,TxWx,2013-10-16 15:42:00,
2013-10-16 10:43:00,67.0,65.0,29.94,NNE,22,10.0,10.0,92,0.00,,,0.00,TxWx,2013-10-16 15:43:00,
2013-10-16 10:46:00,67.0,65.0,29.94,NW,315,3.0,3.0,93,0.00,,,0.00,TxWx,2013-10-16 15:46:00,
2013-10-16 10:47:00,67.0,65.0,29.95,NNE,22,8.0,9.0,93,0.00,,,0.00,TxWx,2013-10-16 15:47:00,
2013-10-16 10:49:00,67.0,65.0,29.94,NNE,22,12.0,14.0,93,0.00,,,0.00,TxWx,2013-10-16 15:49:00,
2013-10-16 10:52:00,67.0,65.0,29.94,NNE,22,11.0,11.0,92,0.00,,,0.00,TxWx,2013-10-16 15:52:00,
2013-10-16 10:54:00,67.0,64.0,29.94,North,0,11.0,11.0,92,0.00,,,0.00,TxWx,2013-10-16 15:54:00,
2013-10-16 10:57:00,67.0,65.0,29.94,NNE,22,13.0,13.0,92,0.00,,,0.00,TxWx,2013-10-16 15:57:00,
2013-10-16 10:58:00,67.0,65.0,29.94,NE,45,7.0,7.0,92,0.00,,,0.00,TxWx,2013-10-16 15:58:00,
2013-10-16 10:59:00,67.0,64.0,29.94,NE,45,11.0,11.0,92,0.00,,,0.00,TxWx,2013-10-16 15:59:00,
2013-10-16 11:00:00,67.0,65.0,29.94,NE,45,9.0,10.0,92,0.00,,,0.00,TxWx,2013-10-16 16:00:00,
2013-10-16 11:02:00,67.0,65.0,29.94,NNE,22,11.0,11.0,92,0.00,,,0.00,TxWx,2013-10-16 16:02:00,
2013-10-16 11:03:00,67.0,65.0,29.94,NE,45,7.0,7.0,92,0.00,,,0.00,TxWx,2013-10-16 16:03:00,
2013-10-16 11:04:00,67.0,65.0,29.94,ENE,67,5.0,6.0,92,0.00,,,0.00,TxWx,2013-10-16 16:04:00,
2013-10-16 11:05:00,67.0,65.0,29.94,North,0,6.0,10.0,92,0.00,,,0.00,TxWx,2013-10-16 16:05:00,
2013-10-16 11:06:00,67.0,65.0,29.94,NE,45,8.0,10.0,92,0.00,,,0.00,TxWx,2013-10-16 16:06:00,
2013-10-16 11:07:00,67.0,64.0,29.94,NE,45,6.0,6.0,92,0.00,,,0.00,TxWx,2013-10-16 16:07:00,
2013-10-16 11:08:00,68.0,65.0,29.94,NNE,22,8.0,8.0,92,0.00,,,0.00,TxWx,2013-10-16 16:08:00,
2013-10-16 11:09:00,68.0,65.0,29.94,NE,45,10.0,10.0,92,0.00,,,0.00,TxWx,2013-10-16 16:09:00,
2013-10-16 11:11:00,68.0,65.0,29.94,NNE,22,10.0,10.0,91,0.00,,,0.00,TxWx,2013-10-16 16:11:00,
2013-10-16 11:12:00,67.0,64.0,29.94,North,0,8.0,9.0,91,0.00,,,0.00,TxWx,2013-10-16 16:12:00,
2013-10-16 11:14:00,67.0,64.0,29.94,NNE,22,14.0,14.0,91,0.00,,,0.00,TxWx,2013-10-16 16:14:00,
2013-10-16 11:15:00,68.0,65.0,29.94,NNE,22,6.0,6.0,91,0.00,,,0.00,TxWx,2013-10-16 16:15:00,
2013-10-16 11:16:00,68.0,65.0,29.94,NNE,22,11.0,14.0,92,0.00,,,0.00,TxWx,2013-10-16 16:16:00,
2013-10-16 11:17:00,68.0,65.0,29.94,NNE,22,10.0,13.0,91,0.00,,,0.00,TxWx,2013-10-16 16:17:00,
2013-10-16 11:20:00,68.0,65.0,29.95,NE,45,6.0,6.0,91,0.00,,,0.00,TxWx,2013-10-16 16:20:00,
2013-10-16 11:21:00,68.0,65.0,29.94,East,90,6.0,8.0,91,0.00,,,0.00,TxWx,2013-10-16 16:21:00,
2013-10-16 11:22:00,68.0,65.0,29.94,NNE,22,9.0,11.0,91,0.00,,,0.00,TxWx,2013-10-16 16:22:00,
2013-10-16 11:25:00,68.0,65.0,29.94,NNE,22,8.0,8.0,90,0.00,,,0.00,TxWx,2013-10-16 16:25:00,
2013-10-16 11:26:00,68.0,65.0,29.94,NNW,337,3.0,5.0,90,0.00,,,0.00,TxWx,2013-10-16 16:26:00,
2013-10-16 11:27:00,68.0,65.0,29.94,NE,45,11.0,11.0,90,0.00,,,0.00,TxWx,2013-10-16 16:27:00,
2013-10-16 11:28:00,68.0,65.0,29.94,NNE,22,13.0,13.0,90,0.00,,,0.00,TxWx,2013-10-16 16:28:00,
2013-10-16 11:30:00,68.0,65.0,29.94,NNE,22,12.0,13.0,90,0.00,,,0.00,TxWx,2013-10-16 16:30:00,
2013-10-16 11:31:00,68.0,65.0,29.94,NE,45,8.0,8.0,90,0.00,,,0.00,TxWx,2013-10-16 16:31:00,
2013-10-16 11:32:00,68.0,65.0,29.94,NE,45,8.0,8.0,90,0.00,,,0.00,TxWx,2013-10-16 16:32:00,
2013-10-16 11:33:00,68.0,65.0,29.94,NE,45,6.0,7.0,91,0.00,,,0.00,TxWx,2013-10-16 16:33:00,
2013-10-16 11:35:00,68.0,65.0,29.94,NNE,22,12.0,13.0,89,0.00,,,0.00,TxWx,2013-10-16 16:35:00,
2013-10-16 11:37:00,68.0,65.0,29.94,NNE,22,8.0,11.0,90,0.00,,,0.00,TxWx,2013-10-16 16:37:00,
2013-10-16 11:38:00,68.0,65.0,29.94,East,90,10.0,10.0,89,0.00,,,0.00,TxWx,2013-10-16 16:38:00,
2013-10-16 11:40:00,68.0,65.0,29.94,ENE,67,9.0,11.0,89,0.00,,,0.00,TxWx,2013-10-16 16:40:00,
2013-10-16 11:41:00,68.0,65.0,29.94,NE,45,13.0,13.0,89,0.00,,,0.00,TxWx,2013-10-16 16:41:00,
2013-10-16 11:42:00,68.0,64.0,29.94,NE,45,12.0,12.0,89,0.00,,,0.00,TxWx,2013-10-16 16:42:00,
2013-10-16 11:43:00,68.0,65.0,29.94,NNE,22,6.0,8.0,89,0.00,,,0.00,TxWx,2013-10-16 16:43:00,
2013-10-16 11:44:00,68.0,64.0,29.94,NE,45,10.0,10.0,89,0.00,,,0.00,TxWx,2013-10-16 16:44:00,
2013-10-16 11:45:00,68.0,64.0,29.93,NNE,22,8.0,8.0,89,0.00,,,0.00,TxWx,2013-10-16 16:45:00,
2013-10-16 11:46:00,69.0,65.0,29.94,ENE,67,11.0,11.0,89,0.00,,,0.00,TxWx,2013-10-16 16:46:00,
2013-10-16 11:47:00,69.0,66.0,29.93,NE,45,11.0,11.0,89,0.00,,,0.00,TxWx,2013-10-16 16:47:00,
2013-10-16 11:48:00,69.0,65.0,29.93,NNE,22,10.0,11.0,88,0.00,,,0.00,TxWx,2013-10-16 16:48:00,
2013-10-16 11:49:00,69.0,65.0,29.93,NE,45,11.0,11.0,88,0.00,,,0.00,TxWx,2013-10-16 16:49:00,
2013-10-16 11:51:00,69.0,65.0,29.93,NE,45,11.0,11.0,89,0.00,,,0.00,TxWx,2013-10-16 16:51:00,
2013-10-16 11:52:00,69.0,65.0,29.93,East,90,6.0,7.0,88,0.00,,,0.00,TxWx,2013-10-16 16:52:00,
2013-10-16 11:53:00,69.0,65.0,29.93,ENE,67,6.0,7.0,88,0.00,,,0.00,TxWx,2013-10-16 16:53:00,
2013-10-16 11:54:00,69.0,65.0,29.93,NNE,22,6.0,9.0,88,0.00,,,0.00,TxWx,2013-10-16 16:54:00,
2013-10-16 11:55:00,70.0,66.0,29.93,NNE,22,7.0,8.0,88,0.00,,,0.00,TxWx,2013-10-16 16:55:00,
2013-10-16 11:57:00,69.0,65.0,29.93,NE,45,6.0,6.0,87,0.00,,,0.00,TxWx,2013-10-16 16:57:00,
2013-10-16 11:58:00,69.0,65.0,29.93,NE,45,11.0,11.0,88,0.00,,,0.00,TxWx,2013-10-16 16:58:00,
2013-10-16 11:59:00,70.0,65.0,29.93,NNE,22,12.0,12.0,88,0.00,,,0.00,TxWx,2013-10-16 16:59:00,
2013-10-16 12:00:00,70.0,66.0,29.93,NNE,22,6.0,8.0,87,0.00,,,0.00,TxWx,2013-10-16 17:00:00,
2013-10-16 12:02:00,70.0,66.0,29.93,NE,45,11.0,11.0,88,0.00,,,0.00,TxWx,2013-10-16 17:02:00,
2013-10-16 12:03:00,70.0,66.0,29.93,NE,45,8.0,8.0,87,0.00,,,0.00,TxWx,2013-10-16 17:03:00,
2013-10-16 12:04:00,70.0,66.0,29.93,NNE,22,7.0,7.0,87,0.00,,,0.00,TxWx,2013-10-16 17:04:00,
2013-10-16 12:05:00,70.0,65.0,29.93,NE,45,13.0,14.0,86,0.00,,,0.00,TxWx,2013-10-16 17:05:00,
2013-10-16 12:08:00,71.0,67.0,29.93,NE,45,4.0,5.0,86,0.00,,,0.00,TxWx,2013-10-16 17:08:00,
2013-10-16 12:09:00,71.0,66.0,29.93,NNE,22,6.0,6.0,86,0.00,,,0.00,TxWx,2013-10-16 17:09:00,
2013-10-16 12:10:00,71.0,66.0,29.93,NNE,22,6.0,6.0,85,0.00,,,0.00,TxWx,2013-10-16 17:10:00,
2013-10-16 12:13:00,70.0,65.0,29.93,NNW,337,8.0,9.0,84,0.00,,,0.00,TxWx,2013-10-16 17:13:00,
2013-10-16 12:14:00,70.0,65.0,29.93,North,0,10.0,10.0,84,0.00,,,0.00,TxWx,2013-10-16 17:14:00,
2013-10-16 12:15:00,70.0,65.0,29.93,NNW,337,9.0,9.0,84,0.00,,,0.00,TxWx,2013-10-16 17:15:00,
2013-10-16 12:18:00,71.0,66.0,29.93,NNE,22,7.0,7.0,84,0.00,,,0.00,TxWx,2013-10-16 17:18:00,
2013-10-16 12:19:00,70.0,65.0,29.93,NNE,22,8.0,10.0,84,0.00,,,0.00,TxWx,2013-10-16 17:19:00,
2013-10-16 12:20:00,70.0,65.0,29.92,NNE,22,7.0,8.0,84,0.00,,,0.00,TxWx,2013-10-16 17:20:00,
2013-10-16 12:23:00,70.0,65.0,29.93,East,90,7.0,11.0,84,0.00,,,0.00,TxWx,2013-10-16 17:23:00,
2013-10-16 12:24:00,70.0,65.0,29.93,NE,45,12.0,12.0,83,0.00,,,0.00,TxWx,2013-10-16 17:24:00,
2013-10-16 12:25:00,70.0,65.0,29.93,North,0,11.0,13.0,84,0.00,,,0.00,TxWx,2013-10-16 17:25:00,
2013-10-16 12:26:00,70.0,65.0,29.93,NNE,22,8.0,10.0,84,0.00,,,0.00,TxWx,2013-10-16 17:26:00,
2013-10-16 12:28:00,71.0,66.0,29.93,NE,45,6.0,8.0,84,0.00,,,0.00,TxWx,2013-10-16 17:28:00,
2013-10-16 12:29:00,71.0,66.0,29.93,ENE,67,9.0,10.0,84,0.00,,,0.00,TxWx,2013-10-16 17:29:00,
2013-10-16 12:30:00,71.0,66.0,29.93,NNE,22,8.0,10.0,84,0.00,,,0.00,TxWx,2013-10-16 17:30:00,
2013-10-16 12:31:00,71.0,66.0,29.92,NE,45,8.0,9.0,83,0.00,,,0.00,TxWx,2013-10-16 17:31:00,
2013-10-16 12:34:00,71.0,66.0,29.93,North,0,5.0,6.0,83,0.00,,,0.00,TxWx,2013-10-16 17:34:00,
2013-10-16 12:35:00,71.0,65.0,29.93,North,0,10.0,10.0,83,0.00,,,0.00,TxWx,2013-10-16 17:35:00,
2013-10-16 12:36:00,71.0,66.0,29.93,NE,45,6.0,6.0,84,0.00,,,0.00,TxWx,2013-10-16 17:36:00,
2013-10-16 12:37:00,71.0,66.0,29.93,NNE,22,10.0,13.0,83,0.00,,,0.00,TxWx,2013-10-16 17:37:00,
2013-10-16 12:39:00,71.0,65.0,29.93,NE,45,10.0,10.0,83,0.00,,,0.00,TxWx,2013-10-16 17:39:00,
2013-10-16 12:40:00,71.0,66.0,29.92,NNE,22,14.0,14.0,83,0.00,,,0.00,TxWx,2013-10-16 17:40:00,
2013-10-16 12:42:00,71.0,65.0,29.93,North,0,8.0,10.0,83,0.00,,,0.00,TxWx,2013-10-16 17:42:00,
2013-10-16 12:44:00,72.0,67.0,29.92,NE,45,5.0,5.0,83,0.00,,,0.00,TxWx,2013-10-16 17:44:00,
2013-10-16 12:45:00,72.0,66.0,29.92,NNE,22,4.0,4.0,83,0.00,,,0.00,TxWx,2013-10-16 17:45:00,
2013-10-16 12:47:00,72.0,66.0,29.92,North,0,6.0,7.0,82,0.00,,,0.00,TxWx,2013-10-16 17:47:00,
2013-10-16 12:50:00,72.0,66.0,29.92,NE,45,10.0,10.0,81,0.00,,,0.00,TxWx,2013-10-16 17:50:00,
2013-10-16 12:51:00,72.0,66.0,29.92,NNE,22,8.0,8.0,81,0.00,,,0.00,TxWx,2013-10-16 17:51:00,
2013-10-16 12:52:00,72.0,66.0,29.92,NE,45,5.0,6.0,81,0.00,,,0.00,TxWx,2013-10-16 17:52:00,
2013-10-16 12:53:00,72.0,66.0,29.92,NE,45,12.0,12.0,81,0.00,,,0.00,TxWx,2013-10-16 17:53:00,
2013-10-16 12:55:00,72.0,66.0,29.92,NE,45,10.0,11.0,81,0.00,,,0.00,TxWx,2013-10-16 17:55:00,
2013-10-16 12:56:00,72.0,66.0,29.92,NNE,22,8.0,8.0,81,0.00,,,0.00,TxWx,2013-10-16 17:56:00,
2013-10-16 12:57:00,72.0,66.0,29.92,NE,45,7.0,9.0,81,0.00,,,0.00,TxWx,2013-10-16 17:57:00,
2013-10-16 12:58:00,73.0,67.0,29.92,North,0,3.0,3.0,82,0.00,,,0.00,TxWx,2013-10-16 17:58:00,
2013-10-16 13:00:00,73.0,67.0,29.92,NNE,22,6.0,6.0,81,0.00,,,0.00,TxWx,2013-10-16 18:00:00,
2013-10-16 13:01:00,73.0,67.0,29.92,ENE,67,6.0,6.0,81,0.00,,,0.00,TxWx,2013-10-16 18:01:00,
2013-10-16 13:03:00,73.0,67.0,29.92,NNE,22,10.0,10.0,81,0.00,,,0.00,TxWx,2013-10-16 18:03:00,
2013-10-16 13:06:00,73.0,66.0,29.92,NNE,22,7.0,7.0,80,0.00,,,0.00,TxWx,2013-10-16 18:06:00,
2013-10-16 13:08:00,73.0,66.0,29.91,East,90,3.0,4.0,80,0.00,,,0.00,TxWx,2013-10-16 18:08:00,
2013-10-16 13:09:00,73.0,66.0,29.91,NNE,22,9.0,9.0,79,0.00,,,0.00,TxWx,2013-10-16 18:09:00,
2013-10-16 13:11:00,73.0,66.0,29.91,NNW,337,6.0,6.0,79,0.00,,,0.00,TxWx,2013-10-16 18:11:00,
2013-10-16 13:14:00,74.0,67.0,29.91,NE,45,8.0,8.0,80,0.00,,,0.00,TxWx,2013-10-16 18:14:00,
2013-10-16 13:15:00,74.0,67.0,29.91,NE,45,7.0,7.0,79,0.00,,,0.00,TxWx,2013-10-16 18:15:00,
2013-10-16 13:16:00,74.0,67.0,29.91,NNE,22,8.0,8.0,79,0.00,,,0.00,TxWx,2013-10-16 18:16:00,
2013-10-16 13:17:00,73.0,66.0,29.91,NNE,22,10.0,10.0,79,0.00,,,0.00,TxWx,2013-10-16 18:17:00,
2013-10-16 13:19:00,74.0,67.0,29.91,ENE,67,4.0,4.0,79,0.00,,,0.00,TxWx,2013-10-16 18:19:00,
2013-10-16 13:20:00,73.0,66.0,29.91,NE,45,8.0,8.0,78,0.00,,,0.00,TxWx,2013-10-16 18:20:00,
2013-10-16 13:22:00,74.0,67.0,29.91,ENE,67,5.0,5.0,79,0.00,,,0.00,TxWx,2013-10-16 18:22:00,
2013-10-16 13:26:00,74.0,66.0,29.91,NE,45,9.0,9.0,78,0.00,,,0.00,TxWx,2013-10-16 18:26:00,
2013-10-16 13:27:00,74.0,67.0,29.91,North,0,5.0,5.0,78,0.00,,,0.00,TxWx,2013-10-16 18:27:00,
2013-10-16 13:28:00,74.0,67.0,29.91,ENE,67,5.0,5.0,78,0.00,,,0.00,TxWx,2013-10-16 18:28:00,
2013-10-16 13:32:00,74.0,67.0,29.90,NNW,337,5.0,6.0,79,0.00,,,0.00,TxWx,2013-10-16 18:32:00,
2013-10-16 13:33:00,74.0,67.0,29.90,NNE,22,4.0,5.0,78,0.00,,,0.00,TxWx,2013-10-16 18:33:00,
2013-10-16 13:37:00,74.0,66.0,29.90,NNW,337,10.0,10.0,78,0.00,,,0.00,TxWx,2013-10-16 18:37:00,
2013-10-16 13:38:00,73.0,66.0,29.90,NNE,22,11.0,11.0,78,0.00,,,0.00,TxWx,2013-10-16 18:38:00,
2013-10-16 13:42:00,73.0,66.0,29.90,NNE,22,12.0,13.0,78,0.00,,,0.00,TxWx,2013-10-16 18:42:00,
2013-10-16 13:43:00,73.0,66.0,29.90,NNE,22,5.0,6.0,79,0.00,,,0.00,TxWx,2013-10-16 18:43:00,
2013-10-16 13:44:00,73.0,66.0,29.90,NE,45,6.0,7.0,79,0.00,,,0.00,TxWx,2013-10-16 18:44:00,
2013-10-16 13:47:00,74.0,67.0,29.90,NNE,22,8.0,8.0,79,0.00,,,0.00,TxWx,2013-10-16 18:47:00,
2013-10-16 13:48:00,74.0,67.0,29.90,NNE,22,8.0,9.0,79,0.00,,,0.00,TxWx,2013-10-16 18:48:00,
2013-10-16 13:49:00,74.0,67.0,29.89,NNE,22,8.0,8.0,79,0.00,,,0.00,TxWx,2013-10-16 18:49:00,
2013-10-16 13:52:00,73.0,66.0,29.89,NE,45,9.0,10.0,78,0.00,,,0.00,TxWx,2013-10-16 18:52:00,
2013-10-16 13:53:00,74.0,67.0,29.89,North,0,8.0,8.0,78,0.00,,,0.00,TxWx,2013-10-16 18:53:00,
2013-10-16 13:54:00,74.0,67.0,29.89,North,0,3.0,4.0,79,0.00,,,0.00,TxWx,2013-10-16 18:54:00,
2013-10-16 13:55:00,74.0,67.0,29.89,NE,45,5.0,6.0,78,0.00,,,0.00,TxWx,2013-10-16 18:55:00,
2013-10-16 13:58:00,74.0,66.0,29.89,NE,45,11.0,12.0,77,0.00,,,0.00,TxWx,2013-10-16 18:58:00,
2013-10-16 13:59:00,74.0,66.0,29.89,NE,45,11.0,11.0,78,0.00,,,0.00,TxWx,2013-10-16 18:59:00,
2013-10-16 14:00:00,73.0,66.0,29.89,North,0,8.0,11.0,78,0.00,,,0.00,TxWx,2013-10-16 19:00:00,
2013-10-16 14:03:00,74.0,67.0,29.89,NNE,22,11.0,11.0,78,0.00,,,0.00,TxWx,2013-10-16 19:03:00,
2013-10-16 14:04:00,74.0,67.0,29.89,NE,45,10.0,10.0,78,0.00,,,0.00,TxWx,2013-10-16 19:04:00,
2013-10-16 14:06:00,73.0,65.0,29.89,NNE,22,11.0,11.0,77,0.00,,,0.00,TxWx,2013-10-16 19:06:00,
2013-10-16 14:08:00,74.0,67.0,29.89,North,0,4.0,4.0,78,0.00,,,0.00,TxWx,2013-10-16 19:08:00,
2013-10-16 14:09:00,74.0,67.0,29.89,North,0,8.0,8.0,78,0.00,,,0.00,TxWx,2013-10-16 19:09:00,
2013-10-16 14:10:00,74.0,67.0,29.89,ENE,67,6.0,6.0,78,0.00,,,0.00,TxWx,2013-10-16 19:10:00,
2013-10-16 14:11:00,74.0,66.0,29.89,NE,45,9.0,9.0,77,0.00,,,0.00,TxWx,2013-10-16 19:11:00,
2013-10-16 14:13:00,74.0,66.0,29.89,North,0,6.0,6.0,78,0.00,,,0.00,TxWx,2013-10-16 19:13:00,
2013-10-16 14:14:00,73.0,65.0,29.89,NNE,22,13.0,13.0,76,0.00,,,0.00,TxWx,2013-10-16 19:14:00,
2013-10-16 14:15:00,73.0,65.0,29.89,North,0,6.0,9.0,77,0.00,,,0.00,TxWx,2013-10-16 19:15:00,
2013-10-16 14:16:00,74.0,66.0,29.89,NNE,22,9.0,10.0,78,0.00,,,0.00,TxWx,2013-10-16 19:16:00,
2013-10-16 14:17:00,74.0,66.0,29.89,NNE,22,6.0,6.0,78,0.00,,,0.00,TxWx,2013-10-16 19:17:00,
2013-10-16 14:18:00,73.0,66.0,29.89,North,0,10.0,10.0,78,0.00,,,0.00,TxWx,2013-10-16 19:18:00,
2013-10-16 14:19:00,73.0,65.0,29.89,NNE,22,7.0,8.0,77,0.00,,,0.00,TxWx,2013-10-16 19:19:00,
2013-10-16 14:20:00,73.0,65.0,29.89,NE,45,9.0,9.0,77,0.00,,,0.00,TxWx,2013-10-16 19:20:00,
2013-10-16 14:22:00,74.0,66.0,29.89,NNE,22,8.0,9.0,78,0.00,,,0.00,TxWx,2013-10-16 19:22:00,
2013-10-16 14:23:00,74.0,66.0,29.89,SE,135,4.0,4.0,78,0.00,,,0.00,TxWx,2013-10-16 19:23:00,
2013-10-16 14:25:00,74.0,66.0,29.89,NNE,22,5.0,5.0,78,0.00,,,0.00,TxWx,2013-10-16 19:25:00,
2013-10-16 14:27:00,74.0,66.0,29.89,NNE,22,6.0,8.0,77,0.00,,,0.00,TxWx,2013-10-16 19:27:00,
2013-10-16 14:28:00,73.0,65.0,29.89,NNE,22,9.0,10.0,77,0.00,,,0.00,TxWx,2013-10-16 19:28:00,
2013-10-16 14:29:00,74.0,66.0,29.89,NE,45,8.0,12.0,78,0.00,,,0.00,TxWx,2013-10-16 19:29:00,
2013-10-16 14:30:00,74.0,66.0,29.89,NNE,22,7.0,7.0,77,0.00,,,0.00,TxWx,2013-10-16 19:30:00,
2013-10-16 14:32:00,74.0,66.0,29.89,NE,45,10.0,10.0,77,0.00,,,0.00,TxWx,2013-10-16 19:32:00,
2013-10-16 14:33:00,74.0,66.0,29.89,NE,45,5.0,6.0,77,0.00,,,0.00,TxWx,2013-10-16 19:33:00,
2013-10-16 14:34:00,74.0,66.0,29.89,NE,45,8.0,12.0,76,0.00,,,0.00,TxWx,2013-10-16 19:34:00,
2013-10-16 14:35:00,74.0,66.0,29.88,NNE,22,10.0,10.0,77,0.00,,,0.00,TxWx,2013-10-16 19:35:00,
2013-10-16 14:37:00,73.0,65.0,29.88,NE,45,10.0,11.0,77,0.00,,,0.00,TxWx,2013-10-16 19:37:00,
2013-10-16 14:39:00,74.0,66.0,29.88,ENE,67,8.0,9.0,77,0.00,,,0.00,TxWx,2013-10-16 19:39:00,
2013-10-16 14:40:00,74.0,67.0,29.88,NNE,22,3.0,3.0,78,0.00,,,0.00,TxWx,2013-10-16 19:40:00,
2013-10-16 14:42:00,74.0,66.0,29.88,NE,45,7.0,10.0,78,0.00,,,0.00,TxWx,2013-10-16 19:42:00,
2013-10-16 14:43:00,74.0,66.0,29.88,NNW,337,6.0,6.0,77,0.00,,,0.00,TxWx,2013-10-16 19:43:00,
2013-10-16 14:44:00,74.0,66.0,29.88,NE,45,7.0,7.0,77,0.00,,,0.00,TxWx,2013-10-16 19:44:00,
2013-10-16 14:45:00,74.0,66.0,29.88,NNE,22,10.0,10.0,76,0.00,,,0.00,TxWx,2013-10-16 19:45:00,
2013-10-16 14:47:00,74.0,66.0,29.88,North,0,6.0,11.0,77,0.00,,,0.00,TxWx,2013-10-16 19:47:00,
2013-10-16 14:48:00,74.0,66.0,29.88,NNW,337,5.0,6.0,77,0.00,,,0.00,TxWx,2013-10-16 19:48:00,
2013-10-16 14:49:00,74.0,66.0,29.88,NNE,22,5.0,6.0,77,0.00,,,0.00,TxWx,2013-10-16 19:49:00,
2013-10-16 14:50:00,74.0,66.0,29.88,ENE,67,8.0,10.0,77,0.00,,,0.00,TxWx,2013-10-16 19:50:00,
2013-10-16 14:51:00,74.0,66.0,29.88,NE,45,11.0,11.0,77,0.00,,,0.00,TxWx,2013-10-16 19:51:00,
2013-10-16 14:52:00,74.0,66.0,29.88,NNE,22,9.0,10.0,77,0.00,,,0.00,TxWx,2013-10-16 19:52:00,
2013-10-16 14:54:00,74.0,66.0,29.88,NNE,22,6.0,8.0,78,0.00,,,0.00,TxWx,2013-10-16 19:54:00,
2013-10-16 14:55:00,74.0,67.0,29.88,ENE,67,6.0,6.0,78,0.00,,,0.00,TxWx,2013-10-16 19:55:00,
2013-10-16 14:56:00,74.0,66.0,29.88,NNE,22,5.0,8.0,77,0.00,,,0.00,TxWx,2013-10-16 19:56:00,
2013-10-16 14:57:00,73.0,65.0,29.88,NNE,22,10.0,11.0,77,0.00,,,0.00,TxWx,2013-10-16 19:57:00,
2013-10-16 14:59:00,73.0,65.0,29.88,NE,45,8.0,8.0,77,0.00,,,0.00,TxWx,2013-10-16 19:59:00,
2013-10-16 15:00:00,74.0,66.0,29.88,NE,45,5.0,5.0,77,0.00,,,0.00,TxWx,2013-10-16 20:00:00,
2013-10-16 15:01:00,74.0,66.0,29.88,NE,45,8.0,8.0,77,0.00,,,0.00,TxWx,2013-10-16 20:01:00,
2013-10-16 15:02:00,74.0,66.0,29.88,NNE,22,10.0,11.0,77,0.00,,,0.00,TxWx,2013-10-16 20:02:00,
2013-10-16 15:04:00,74.0,66.0,29.88,NE,45,8.0,8.0,78,0.00,,,0.00,TxWx,2013-10-16 20:04:00,
2013-10-16 15:05:00,74.0,66.0,29.88,ENE,67,9.0,9.0,77,0.00,,,0.00,TxWx,2013-10-16 20:05:00,
2013-10-16 15:06:00,74.0,66.0,29.88,NE,45,6.0,6.0,78,0.00,,,0.00,TxWx,2013-10-16 20:06:00,
2013-10-16 15:07:00,74.0,66.0,29.88,NE,45,10.0,10.0,77,0.00,,,0.00,TxWx,2013-10-16 20:07:00,
2013-10-16 15:08:00,74.0,66.0,29.88,North,0,4.0,5.0,77,0.00,,,0.00,TxWx,2013-10-16 20:08:00,
2013-10-16 15:10:00,74.0,66.0,29.88,NNE,22,5.0,5.0,77,0.00,,,0.00,TxWx,2013-10-16 20:10:00,
2013-10-16 15:11:00,74.0,66.0,29.88,NE,45,7.0,8.0,76,0.00,,,0.00,TxWx,2013-10-16 20:11:00,
2013-10-16 15:12:00,74.0,66.0,29.88,NNE,22,6.0,9.0,77,0.00,,,0.00,TxWx,2013-10-16 20:12:00,
2013-10-16 15:13:00,74.0,66.0,29.88,NE,45,8.0,8.0,77,0.00,,,0.00,TxWx,2013-10-16 20:13:00,
2013-10-16 15:14:00,74.0,66.0,29.88,NE,45,10.0,10.0,77,0.00,,,0.00,TxWx,2013-10-16 20:14:00,
2013-10-16 15:15:00,74.0,66.0,29.88,NE,45,10.0,10.0,77,0.00,,,0.00,TxWx,2013-10-16 20:15:00,
2013-10-16 15:16:00,74.0,66.0,29.88,ENE,67,6.0,6.0,77,0.00,,,0.00,TxWx,2013-10-16 20:16:00,
2013-10-16 15:17:00,74.0,66.0,29.88,ENE,67,6.0,6.0,77,0.00,,,0.00,TxWx,2013-10-16 20:17:00,
2013-10-16 15:18:00,74.0,66.0,29.88,NE,45,8.0,8.0,76,0.00,,,0.00,TxWx,2013-10-16 20:18:00,
2013-10-16 15:19:00,74.0,66.0,29.88,ENE,67,6.0,6.0,76,0.00,,,0.00,TxWx,2013-10-16 20:19:00,
2013-10-16 15:20:00,74.0,66.0,29.88,NNE,22,6.0,6.0,76,0.00,,,0.00,TxWx,2013-10-16 20:20:00,
2013-10-16 15:21:00,74.0,66.0,29.88,NNE,22,8.0,10.0,77,0.00,,,0.00,TxWx,2013-10-16 20:21:00,
2013-10-16 15:23:00,74.0,66.0,29.88,ENE,67,9.0,9.0,76,0.00,,,0.00,TxWx,2013-10-16 20:23:00,
2013-10-16 15:24:00,74.0,66.0,29.88,NE,45,5.0,6.0,76,0.00,,,0.00,TxWx,2013-10-16 20:24:00,
2013-10-16 15:25:00,74.0,66.0,29.88,NE,45,5.0,6.0,76,0.00,,,0.00,TxWx,2013-10-16 20:25:00,
2013-10-16 15:26:00,74.0,66.0,29.88,NNE,22,5.0,5.0,76,0.00,,,0.00,TxWx,2013-10-16 20:26:00,
2013-10-16 15:28:00,74.0,66.0,29.88,NE,45,7.0,7.0,76,0.00,,,0.00,TxWx,2013-10-16 20:28:00,
2013-10-16 15:29:00,74.0,66.0,29.88,ENE,67,4.0,5.0,77,0.00,,,0.00,TxWx,2013-10-16 20:29:00,
2013-10-16 15:30:00,74.0,66.0,29.88,NNE,22,8.0,10.0,77,0.00,,,0.00,TxWx,2013-10-16 20:30:00,
2013-10-16 15:31:00,74.0,66.0,29.88,ENE,67,8.0,9.0,77,0.00,,,0.00,TxWx,2013-10-16 20:31:00,
2013-10-16 15:32:00,74.0,66.0,29.88,SE,135,3.0,3.0,77,0.00,,,0.00,TxWx,2013-10-16 20:32:00,
2013-10-16 15:33:00,74.0,66.0,29.88,ENE,67,6.0,6.0,77,0.00,,,0.00,TxWx,2013-10-16 20:33:00,
2013-10-16 15:34:00,74.0,66.0,29.88,SSE,157,4.0,5.0,76,0.00,,,0.00,TxWx,2013-10-16 20:34:00,
2013-10-16 15:35:00,74.0,66.0,29.88,East,90,4.0,5.0,76,0.00,,,0.00,TxWx,2013-10-16 20:35:00,
2013-10-16 15:37:00,74.0,66.0,29.88,NNE,22,5.0,5.0,76,0.00,,,0.00,TxWx,2013-10-16 20:37:00,
2013-10-16 15:38:00,75.0,67.0,29.88,ENE,67,3.0,4.0,77,0.00,,,0.00,TxWx,2013-10-16 20:38:00,
2013-10-16 15:39:00,75.0,67.0,29.88,ENE,67,5.0,5.0,77,0.00,,,0.00,TxWx,2013-10-16 20:39:00,
2013-10-16 15:40:00,74.0,66.0,29.88,ENE,67,9.0,9.0,76,0.00,,,0.00,TxWx,2013-10-16 20:40:00,
2013-10-16 15:42:00,74.0,66.0,29.88,North,0,8.0,8.0,76,0.00,,,0.00,TxWx,2013-10-16 20:42:00,
2013-10-16 15:43:00,74.0,66.0,29.88,East,90,5.0,6.0,76,0.00,,,0.00,TxWx,2013-10-16 20:43:00,
2013-10-16 15:44:00,74.0,66.0,29.88,East,90,3.0,4.0,77,0.00,,,0.00,TxWx,2013-10-16 20:44:00,
2013-10-16 15:45:00,74.0,66.0,29.88,NNE,22,3.0,3.0,76,0.00,,,0.00,TxWx,2013-10-16 20:45:00,
2013-10-16 15:48:00,74.0,66.0,29.88,East,90,10.0,11.0,76,0.00,,,0.00,TxWx,2013-10-16 20:48:00,
2013-10-16 15:50:00,74.0,66.0,29.88,NE,45,4.0,5.0,76,0.00,,,0.00,TxWx,2013-10-16 20:50:00,
2013-10-16 15:53:00,74.0,66.0,29.87,ENE,67,4.0,5.0,76,0.00,,,0.00,TxWx,2013-10-16 20:53:00,
2013-10-16 15:55:00,75.0,67.0,29.87,ENE,67,10.0,10.0,76,0.00,,,0.00,TxWx,2013-10-16 20:55:00,
2013-10-16 15:56:00,74.0,66.0,29.87,NNE,22,8.0,8.0,75,0.00,,,0.00,TxWx,2013-10-16 20:56:00,
2013-10-16 15:58:00,74.0,66.0,29.87,NE,45,10.0,11.0,76,0.00,,,0.00,TxWx,2013-10-16 20:58:00,
2013-10-16 15:59:00,75.0,67.0,29.87,ENE,67,8.0,8.0,76,0.00,,,0.00,TxWx,2013-10-16 20:59:00,
2013-10-16 16:00:00,74.0,66.0,29.87,NE,45,8.0,11.0,76,0.00,,,0.00,TxWx,2013-10-16 21:00:00,
2013-10-16 16:01:00,74.0,66.0,29.87,East,90,7.0,7.0,76,0.00,,,0.00,TxWx,2013-10-16 21:01:00,
2013-10-16 16:03:00,75.0,67.0,29.87,NE,45,5.0,7.0,76,0.00,,,0.00,TxWx,2013-10-16 21:03:00,
2013-10-16 16:05:00,74.0,66.0,29.87,SE,135,5.0,6.0,76,0.00,,,0.00,TxWx,2013-10-16 21:05:00,
2013-10-16 16:06:00,74.0,66.0,29.87,NNE,22,11.0,11.0,76,0.00,,,0.00,TxWx,2013-10-16 21:06:00,
2013-10-16 16:07:00,74.0,66.0,29.87,ENE,67,5.0,6.0,76,0.00,,,0.00,TxWx,2013-10-16 21:07:00,
2013-10-16 16:09:00,75.0,67.0,29.87,ENE,67,7.0,8.0,77,0.00,,,0.00,TxWx,2013-10-16 21:09:00,
2013-10-16 16:10:00,74.0,66.0,29.87,ENE,67,8.0,8.0,77,0.00,,,0.00,TxWx,2013-10-16 21:10:00,
2013-10-16 16:11:00,75.0,67.0,29.87,NNE,22,9.0,9.0,77,0.00,,,0.00,TxWx,2013-10-16 21:11:00,
2013-10-16 16:12:00,74.0,66.0,29.87,NNE,22,7.0,10.0,77,0.00,,,0.00,TxWx,2013-10-16 21:12:00,
2013-10-16 16:14:00,74.0,66.0,29.87,NE,45,8.0,8.0,76,0.00,,,0.00,TxWx,2013-10-16 21:14:00,
2013-10-16 16:15:00,74.0,66.0,29.87,ENE,67,9.0,10.0,76,0.00,,,0.00,TxWx,2013-10-16 21:15:00,
2013-10-16 16:16:00,74.0,66.0,29.87,NE,45,6.0,6.0,76,0.00,,,0.00,TxWx,2013-10-16 21:16:00,
2013-10-16 16:17:00,74.0,66.0,29.88,ENE,67,10.0,10.0,76,0.00,,,0.00,TxWx,2013-10-16 21:17:00,
2013-10-16 16:18:00,74.0,66.0,29.88,ENE,67,6.0,10.0,76,0.00,,,0.00,TxWx,2013-10-16 21:18:00,
2013-10-16 16:19:00,74.0,66.0,29.88,NE,45,7.0,7.0,76,0.00,,,0.00,TxWx,2013-10-16 21:19:00,
2013-10-16 16:20:00,74.0,66.0,29.88,ESE,112,4.0,4.0,76,0.00,,,0.00,TxWx,2013-10-16 21:20:00,
2013-10-16 16:21:00,74.0,66.0,29.88,East,90,6.0,8.0,76,0.00,,,0.00,TxWx,2013-10-16 21:21:00,
2013-10-16 16:22:00,74.0,66.0,29.88,NE,45,10.0,11.0,77,0.00,,,0.00,TxWx,2013-10-16 21:22:00,
2013-10-16 16:23:00,74.0,66.0,29.88,ENE,67,6.0,6.0,76,0.00,,,0.00,TxWx,2013-10-16 21:23:00,
2013-10-16 16:24:00,74.0,66.0,29.88,NNE,22,8.0,8.0,77,0.00,,,0.00,TxWx,2013-10-16 21:24:00,
2013-10-16 16:26:00,74.0,66.0,29.88,NE,45,6.0,6.0,77,0.00,,,0.00,TxWx,2013-10-16 21:26:00,
2013-10-16 16:27:00,74.0,66.0,29.88,NE,45,8.0,8.0,77,0.00,,,0.00,TxWx,2013-10-16 21:27:00,
2013-10-16 16:28:00,74.0,66.0,29.88,NNE,22,9.0,10.0,77,0.00,,,0.00,TxWx,2013-10-16 21:28:00,
2013-10-16 16:29:00,74.0,66.0,29.88,NE,45,8.0,8.0,77,0.00,,,0.00,TxWx,2013-10-16 21:29:00,
2013-10-16 16:30:00,74.0,66.0,29.88,ENE,67,4.0,4.0,77,0.00,,,0.00,TxWx,2013-10-16 21:30:00,
2013-10-16 16:31:00,74.0,66.0,29.88,ENE,67,7.0,8.0,77,0.00,,,0.00,TxWx,2013-10-16 21:31:00,
2013-10-16 16:32:00,74.0,66.0,29.88,NE,45,5.0,6.0,77,0.00,,,0.00,TxWx,2013-10-16 21:32:00,
2013-10-16 16:33:00,74.0,66.0,29.88,NNE,22,9.0,10.0,77,0.00,,,0.00,TxWx,2013-10-16 21:33:00,
2013-10-16 16:34:00,74.0,66.0,29.88,NNW,337,3.0,4.0,78,0.00,,,0.00,TxWx,2013-10-16 21:34:00,
2013-10-16 16:35:00,73.0,65.0,29.88,ENE,67,8.0,9.0,77,0.00,,,0.00,TxWx,2013-10-16 21:35:00,
2013-10-16 16:36:00,74.0,66.0,29.88,ENE,67,7.0,8.0,77,0.00,,,0.00,TxWx,2013-10-16 21:36:00,
2013-10-16 16:37:00,74.0,66.0,29.88,NNE,22,1.0,2.0,78,0.00,,,0.00,TxWx,2013-10-16 21:37:00,
2013-10-16 16:39:00,74.0,66.0,29.88,North,0,9.0,10.0,77,0.00,,,0.00,TxWx,2013-10-16 21:39:00,
2013-10-16 16:40:00,74.0,66.0,29.88,NNE,22,11.0,11.0,77,0.00,,,0.00,TxWx,2013-10-16 21:40:00,
2013-10-16 16:41:00,74.0,66.0,29.88,NNE,22,5.0,7.0,77,0.00,,,0.00,TxWx,2013-10-16 21:41:00,
2013-10-16 16:42:00,74.0,66.0,29.88,NNE,22,6.0,6.0,77,0.00,,,0.00,TxWx,2013-10-16 21:42:00,
2013-10-16 16:43:00,74.0,66.0,29.88,NNW,337,8.0,8.0,77,0.00,,,0.00,TxWx,2013-10-16 21:43:00,
2013-10-16 16:44:00,74.0,66.0,29.88,NNE,22,10.0,10.0,77,0.00,,,0.00,TxWx,2013-10-16 21:44:00,
2013-10-16 16:45:00,74.0,66.0,29.88,NE,45,7.0,9.0,76,0.00,,,0.00,TxWx,2013-10-16 21:45:00,
2013-10-16 16:46:00,74.0,66.0,29.88,NNE,22,8.0,8.0,77,0.00,,,0.00,TxWx,2013-10-16 21:46:00,
2013-10-16 16:48:00,74.0,66.0,29.88,NE,45,8.0,8.0,77,0.00,,,0.00,TxWx,2013-10-16 21:48:00,
2013-10-16 16:49:00,74.0,66.0,29.88,NNE,22,5.0,5.0,77,0.00,,,0.00,TxWx,2013-10-16 21:49:00,
2013-10-16 16:50:00,74.0,66.0,29.88,North,0,11.0,11.0,77,0.00,,,0.00,TxWx,2013-10-16 21:50:00,
2013-10-16 16:52:00,73.0,65.0,29.88,NNE,22,3.0,4.0,77,0.00,,,0.00,TxWx,2013-10-16 21:52:00,
2013-10-16 16:53:00,74.0,66.0,29.88,NNW,337,6.0,7.0,78,0.00,,,0.00,TxWx,2013-10-16 21:53:00,
2013-10-16 16:54:00,74.0,66.0,29.88,NE,45,5.0,6.0,77,0.00,,,0.00,TxWx,2013-10-16 21:54:00,
2013-10-16 16:55:00,74.0,66.0,29.88,North,0,5.0,6.0,78,0.00,,,0.00,TxWx,2013-10-16 21:55:00,
2013-10-16 16:56:00,74.0,66.0,29.88,NNE,22,8.0,8.0,78,0.00,,,0.00,TxWx,2013-10-16 21:56:00,
2013-10-16 16:57:00,74.0,66.0,29.88,North,0,5.0,6.0,78,0.00,,,0.00,TxWx,2013-10-16 21:57:00,
2013-10-16 16:58:00,74.0,66.0,29.88,North,0,6.0,6.0,78,0.00,,,0.00,TxWx,2013-10-16 21:58:00,
2013-10-16 16:59:00,73.0,65.0,29.88,NNE,22,6.0,6.0,77,0.00,,,0.00,TxWx,2013-10-16 21:59:00,
2013-10-16 17:00:00,73.0,65.0,29.88,NNE,22,6.0,6.0,77,0.00,,,0.00,TxWx,2013-10-16 22:00:00,
2013-10-16 17:01:00,74.0,66.0,29.88,NNW,337,8.0,8.0,78,0.00,,,0.00,TxWx,2013-10-16 22:01:00,
2013-10-16 17:02:00,73.0,65.0,29.88,NE,45,6.0,8.0,77,0.00,,,0.00,TxWx,2013-10-16 22:02:00,
2013-10-16 17:03:00,73.0,65.0,29.88,NNE,22,7.0,7.0,77,0.00,,,0.00,TxWx,2013-10-16 22:03:00,
2013-10-16 17:05:00,73.0,65.0,29.88,NNE,22,11.0,11.0,77,0.00,,,0.00,TxWx,2013-10-16 22:05:00,
2013-10-16 17:06:00,73.0,65.0,29.88,North,0,4.0,5.0,77,0.00,,,0.00,TxWx,2013-10-16 22:06:00,
2013-10-16 17:07:00,73.0,65.0,29.88,North,0,11.0,11.0,77,0.00,,,0.00,TxWx,2013-10-16 22:07:00,
2013-10-16 17:08:00,73.0,65.0,29.88,NNE,22,8.0,9.0,77,0.00,,,0.00,TxWx,2013-10-16 22:08:00,
2013-10-16 17:10:00,73.0,66.0,29.88,NNW,337,10.0,10.0,78,0.00,,,0.00,TxWx,2013-10-16 22:10:00,
2013-10-16 17:11:00,74.0,66.0,29.88,NNW,337,5.0,5.0,78,0.00,,,0.00,TxWx,2013-10-16 22:11:00,
2013-10-16 17:12:00,74.0,66.0,29.88,NE,45,9.0,11.0,78,0.00,,,0.00,TxWx,2013-10-16 22:12:00,
2013-10-16 17:13:00,73.0,65.0,29.88,NNE,22,8.0,9.0,77,0.00,,,0.00,TxWx,2013-10-16 22:13:00,
2013-10-16 17:15:00,74.0,66.0,29.88,NNW,337,8.0,8.0,77,0.00,,,0.00,TxWx,2013-10-16 22:15:00,
2013-10-16 17:16:00,74.0,66.0,29.88,NE,45,8.0,9.0,77,0.00,,,0.00,TxWx,2013-10-16 22:16:00,
2013-10-16 17:17:00,74.0,66.0,29.88,NNE,22,5.0,5.0,78,0.00,,,0.00,TxWx,2013-10-16 22:17:00,
2013-10-16 17:18:00,74.0,66.0,29.88,NNE,22,5.0,5.0,77,0.00,,,0.00,TxWx,2013-10-16 22:18:00,
2013-10-16 17:21:00,73.0,65.0,29.88,NNE,22,10.0,10.0,76,0.00,,,0.00,TxWx,2013-10-16 22:21:00,
2013-10-16 17:22:00,73.0,65.0,29.88,NNE,22,11.0,11.0,77,0.00,,,0.00,TxWx,2013-10-16 22:22:00,
2013-10-16 17:23:00,73.0,65.0,29.88,NE,45,6.0,6.0,77,0.00,,,0.00,TxWx,2013-10-16 22:23:00,
2013-10-16 17:26:00,73.0,65.0,29.88,NNE,22,10.0,11.0,77,0.00,,,0.00,TxWx,2013-10-16 22:26:00,
2013-10-16 17:27:00,73.0,65.0,29.88,North,0,9.0,11.0,77,0.00,,,0.00,TxWx,2013-10-16 22:27:00,
2013-10-16 17:28:00,73.0,65.0,29.88,NNE,22,12.0,13.0,77,0.00,,,0.00,TxWx,2013-10-16 22:28:00,
2013-10-16 17:32:00,73.0,66.0,29.88,NNE,22,3.0,3.0,78,0.00,,,0.00,TxWx,2013-10-16 22:32:00,
2013-10-16 17:33:00,73.0,66.0,29.88,NNE,22,9.0,9.0,78,0.00,,,0.00,TxWx,2013-10-16 22:33:00,
2013-10-16 17:34:00,73.0,66.0,29.88,NE,45,8.0,8.0,78,0.00,,,0.00,TxWx,2013-10-16 22:34:00,
2013-10-16 17:37:00,73.0,65.0,29.89,NE,45,7.0,11.0,77,0.00,,,0.00,TxWx,2013-10-16 22:37:00,
2013-10-16 17:38:00,73.0,65.0,29.88,NNE,22,10.0,11.0,77,0.00,,,0.00,TxWx,2013-10-16 22:38:00,
2013-10-16 17:39:00,73.0,66.0,29.88,NNE,22,8.0,8.0,78,0.00,,,0.00,TxWx,2013-10-16 22:39:00,
2013-10-16 17:42:00,72.0,65.0,29.89,NNE,22,6.0,8.0,78,0.00,,,0.00,TxWx,2013-10-16 22:42:00,
2013-10-16 17:43:00,72.0,65.0,29.88,NE,45,6.0,6.0,78,0.00,,,0.00,TxWx,2013-10-16 22:43:00,
2013-10-16 17:44:00,72.0,65.0,29.88,ENE,67,7.0,7.0,78,0.00,,,0.00,TxWx,2013-10-16 22:44:00,
2013-10-16 17:47:00,72.0,65.0,29.89,NNE,22,13.0,13.0,78,0.00,,,0.00,TxWx,2013-10-16 22:47:00,
2013-10-16 17:48:00,72.0,65.0,29.89,ENE,67,4.0,5.0,79,0.00,,,0.00,TxWx,2013-10-16 22:48:00,
2013-10-16 17:49:00,72.0,65.0,29.89,ENE,67,3.0,4.0,79,0.00,,,0.00,TxWx,2013-10-16 22:49:00,
2013-10-16 17:52:00,72.0,65.0,29.89,NE,45,8.0,9.0,79,0.00,,,0.00,TxWx,2013-10-16 22:52:00,
2013-10-16 17:53:00,72.0,65.0,29.88,NNE,22,11.0,11.0,79,0.00,,,0.00,TxWx,2013-10-16 22:53:00,
2013-10-16 17:54:00,72.0,65.0,29.89,NNW,337,10.0,10.0,79,0.00,,,0.00,TxWx,2013-10-16 22:54:00,
2013-10-16 17:56:00,72.0,65.0,29.88,ENE,67,5.0,6.0,79,0.00,,,0.00,TxWx,2013-10-16 22:56:00,
2013-10-16 17:57:00,72.0,65.0,29.89,NNE,22,9.0,9.0,79,0.00,,,0.00,TxWx,2013-10-16 22:57:00,
2013-10-16 17:59:00,72.0,65.0,29.89,NE,45,10.0,10.0,79,0.00,,,0.00,TxWx,2013-10-16 22:59:00,
2013-10-16 18:00:00,72.0,65.0,29.89,North,0,5.0,5.0,79,0.00,,,0.00,TxWx,2013-10-16 23:00:00,
2013-10-16 18:01:00,72.0,65.0,29.89,NNE,22,8.0,10.0,79,0.00,,,0.00,TxWx,2013-10-16 23:01:00,
2013-10-16 18:03:00,72.0,65.0,29.89,NNW,337,6.0,6.0,79,0.00,,,0.00,TxWx,2013-10-16 23:03:00,
2013-10-16 18:04:00,72.0,65.0,29.89,NE,45,12.0,13.0,79,0.00,,,0.00,TxWx,2013-10-16 23:04:00,
2013-10-16 18:05:00,72.0,65.0,29.89,North,0,5.0,5.0,79,0.00,,,0.00,TxWx,2013-10-16 23:05:00,
2013-10-16 18:06:00,72.0,65.0,29.89,NNW,337,5.0,5.0,79,0.00,,,0.00,TxWx,2013-10-16 23:06:00,
2013-10-16 18:08:00,72.0,65.0,29.89,NE,45,6.0,8.0,79,0.00,,,0.00,TxWx,2013-10-16 23:08:00,
2013-10-16 18:09:00,71.0,64.0,29.89,NE,45,10.0,10.0,79,0.00,,,0.00,TxWx,2013-10-16 23:09:00,
2013-10-16 18:10:00,72.0,65.0,29.89,NNE,22,5.0,5.0,79,0.00,,,0.00,TxWx,2013-10-16 23:10:00,
2013-10-16 18:11:00,71.0,64.0,29.89,NNE,22,11.0,11.0,79,0.00,,,0.00,TxWx,2013-10-16 23:11:00,
2013-10-16 18:12:00,71.0,64.0,29.89,NE,45,12.0,12.0,79,0.00,,,0.00,TxWx,2013-10-16 23:12:00,
2013-10-16 18:13:00,71.0,64.0,29.89,NNW,337,7.0,7.0,79,0.00,,,0.00,TxWx,2013-10-16 23:13:00,
2013-10-16 18:14:00,71.0,64.0,29.89,NNW,337,11.0,13.0,79,0.00,,,0.00,TxWx,2013-10-16 23:14:00,
2013-10-16 18:15:00,71.0,64.0,29.89,NNE,22,9.0,9.0,79,0.00,,,0.00,TxWx,2013-10-16 23:15:00,
2013-10-16 18:16:00,71.0,64.0,29.89,North,0,5.0,5.0,79,0.00,,,0.00,TxWx,2013-10-16 23:16:00,
2013-10-16 18:18:00,71.0,64.0,29.89,NE,45,10.0,13.0,79,0.00,,,0.00,TxWx,2013-10-16 23:18:00,
2013-10-16 18:19:00,71.0,64.0,29.89,NNE,22,7.0,8.0,79,0.00,,,0.00,TxWx,2013-10-16 23:19:00,
2013-10-16 18:20:00,71.0,64.0,29.90,NNE,22,10.0,10.0,79,0.00,,,0.00,TxWx,2013-10-16 23:20:00,
2013-10-16 18:21:00,71.0,64.0,29.90,NNE,22,12.0,12.0,79,0.00,,,0.00,TxWx,2013-10-16 23:21:00,
2013-10-16 18:23:00,70.0,63.0,29.90,NNE,22,11.0,11.0,79,0.00,,,0.00,TxWx,2013-10-16 23:23:00,
2013-10-16 18:24:00,71.0,64.0,29.90,NE,45,8.0,8.0,80,0.00,,,0.00,TxWx,2013-10-16 23:24:00,
2013-10-16 18:25:00,71.0,64.0,29.90,North,0,8.0,8.0,80,0.00,,,0.00,TxWx,2013-10-16 23:25:00,
2013-10-16 18:26:00,70.0,63.0,29.90,North,0,8.0,8.0,80,0.00,,,0.00,TxWx,2013-10-16 23:26:00,
2013-10-16 18:27:00,70.0,63.0,29.90,NNE,22,6.0,8.0,80,0.00,,,0.00,TxWx,2013-10-16 23:27:00,
2013-10-16 18:29:00,70.0,63.0,29.90,NNE,22,11.0,11.0,80,0.00,,,0.00,TxWx,2013-10-16 23:29:00,
2013-10-16 18:30:00,70.0,63.0,29.90,North,0,8.0,8.0,80,0.00,,,0.00,TxWx,2013-10-16 23:30:00,
2013-10-16 18:31:00,70.0,63.0,29.90,North,0,9.0,11.0,79,0.00,,,0.00,TxWx,2013-10-16 23:31:00,
2013-10-16 18:32:00,70.0,63.0,29.90,NNE,22,9.0,9.0,80,0.00,,,0.00,TxWx,2013-10-16 23:32:00,
2013-10-16 18:34:00,70.0,63.0,29.90,North,0,7.0,8.0,80,0.00,,,0.00,TxWx,2013-10-16 23:34:00,
2013-10-16 18:35:00,70.0,63.0,29.90,North,0,11.0,11.0,80,0.00,,,0.00,TxWx,2013-10-16 23:35:00,
2013-10-16 18:36:00,70.0,63.0,29.90,NNE,22,8.0,8.0,80,0.00,,,0.00,TxWx,2013-10-16 23:36:00,
2013-10-16 18:37:00,70.0,63.0,29.89,North,0,4.0,4.0,80,0.00,,,0.00,TxWx,2013-10-16 23:37:00,
2013-10-16 18:39:00,70.0,63.0,29.90,NE,45,6.0,6.0,80,0.00,,,0.00,TxWx,2013-10-16 23:39:00,
2013-10-16 18:40:00,70.0,63.0,29.90,North,0,9.0,10.0,80,0.00,,,0.00,TxWx,2013-10-16 23:40:00,
2013-10-16 18:41:00,70.0,63.0,29.90,NNE,22,5.0,5.0,80,0.00,,,0.00,TxWx,2013-10-16 23:41:00,
2013-10-16 18:42:00,70.0,63.0,29.90,NNE,22,8.0,8.0,80,0.00,,,0.00,TxWx,2013-10-16 23:42:00,
2013-10-16 18:44:00,70.0,64.0,29.90,NNE,22,12.0,12.0,80,0.00,,,0.00,TxWx,2013-10-16 23:44:00,
2013-10-16 18:45:00,70.0,64.0,29.90,North,0,5.0,5.0,81,0.00,,,0.00,TxWx,2013-10-16 23:45:00,
2013-10-16 18:46:00,70.0,64.0,29.90,North,0,10.0,10.0,81,0.00,,,0.00,TxWx,2013-10-16 23:46:00,
2013-10-16 18:47:00,70.0,64.0,29.91,North,0,11.0,11.0,80,0.00,,,0.00,TxWx,2013-10-16 23:47:00,
2013-10-16 18:48:00,70.0,64.0,29.90,NNW,337,4.0,5.0,80,0.00,,,0.00,TxWx,2013-10-16 23:48:00,
2013-10-16 18:49:00,70.0,64.0,29.90,NNE,22,10.0,10.0,80,0.00,,,0.00,TxWx,2013-10-16 23:49:00,
2013-10-16 18:51:00,70.0,64.0,29.90,NNE,22,9.0,9.0,80,0.00,,,0.00,TxWx,2013-10-16 23:51:00,
2013-10-16 18:52:00,70.0,64.0,29.90,NNE,22,7.0,8.0,81,0.00,,,0.00,TxWx,2013-10-16 23:52:00,
2013-10-16 18:53:00,70.0,64.0,29.91,NNW,337,8.0,9.0,81,0.00,,,0.00,TxWx,2013-10-16 23:53:00,
2013-10-16 18:54:00,70.0,64.0,29.90,NE,45,6.0,6.0,81,0.00,,,0.00,TxWx,2013-10-16 23:54:00,
2013-10-16 18:55:00,70.0,64.0,29.91,NE,45,6.0,8.0,81,0.00,,,0.00,TxWx,2013-10-16 23:55:00,
2013-10-16 18:56:00,69.0,63.0,29.90,NE,45,5.0,9.0,80,0.00,,,0.00,TxWx,2013-10-16 23:56:00,
2013-10-16 18:57:00,69.0,63.0,29.91,NNE,22,6.0,8.0,80,0.00,,,0.00,TxWx,2013-10-16 23:57:00,
2013-10-16 18:58:00,69.0,63.0,29.91,North,0,5.0,5.0,80,0.00,,,0.00,TxWx,2013-10-16 23:58:00,
2013-10-16 18:59:00,69.0,63.0,29.91,NNW,337,7.0,8.0,80,0.00,,,0.00,TxWx,2013-10-16 23:59:00,
2013-10-16 19:00:00,69.0,63.0,29.91,NNE,22,5.0,5.0,80,0.00,,,0.00,TxWx,2013-10-17 00:00:00,
2013-10-16 19:01:00,69.0,63.0,29.91,NNE,22,10.0,10.0,80,0.00,,,0.00,TxWx,2013-10-17 00:01:00,
2013-10-16 19:02:00,69.0,63.0,29.91,NE,45,5.0,6.0,80,0.00,,,0.00,TxWx,2013-10-17 00:02:00,
2013-10-16 19:03:00,69.0,63.0,29.91,NNE,22,11.0,11.0,81,0.00,,,0.00,TxWx,2013-10-17 00:03:00,
2013-10-16 19:04:00,69.0,63.0,29.91,NNE,22,10.0,10.0,81,0.00,,,0.00,TxWx,2013-10-17 00:04:00,
2013-10-16 19:05:00,69.0,63.0,29.91,NNW,337,8.0,9.0,81,0.00,,,0.00,TxWx,2013-10-17 00:05:00,
2013-10-16 19:06:00,69.0,63.0,29.91,NNE,22,6.0,11.0,81,0.00,,,0.00,TxWx,2013-10-17 00:06:00,
2013-10-16 19:08:00,69.0,63.0,29.91,North,0,8.0,8.0,81,0.00,,,0.00,TxWx,2013-10-17 00:08:00,
2013-10-16 19:09:00,69.0,63.0,29.91,NNE,22,11.0,11.0,81,0.00,,,0.00,TxWx,2013-10-17 00:09:00,
2013-10-16 19:10:00,69.0,63.0,29.91,NNE,22,6.0,8.0,81,0.00,,,0.00,TxWx,2013-10-17 00:10:00,
2013-10-16 19:11:00,69.0,63.0,29.91,NNE,22,8.0,8.0,81,0.00,,,0.00,TxWx,2013-10-17 00:11:00,
2013-10-16 19:13:00,69.0,63.0,29.91,North,0,8.0,8.0,81,0.00,,,0.00,TxWx,2013-10-17 00:13:00,
2013-10-16 19:14:00,69.0,63.0,29.91,NNW,337,10.0,12.0,81,0.00,,,0.00,TxWx,2013-10-17 00:14:00,
2013-10-16 19:15:00,69.0,63.0,29.91,NNE,22,6.0,6.0,81,0.00,,,0.00,TxWx,2013-10-17 00:15:00,
2013-10-16 19:17:00,69.0,63.0,29.91,NE,45,9.0,12.0,81,0.00,,,0.00,TxWx,2013-10-17 00:17:00,
2013-10-16 19:18:00,68.0,62.0,29.91,NNE,22,5.0,6.0,81,0.00,,,0.00,TxWx,2013-10-17 00:18:00,
2013-10-16 19:19:00,68.0,62.0,29.91,NNE,22,5.0,6.0,81,0.00,,,0.00,TxWx,2013-10-17 00:19:00,
2013-10-16 19:20:00,69.0,63.0,29.91,NNE,22,7.0,8.0,81,0.00,,,0.00,TxWx,2013-10-17 00:20:00,
2013-10-16 19:22:00,69.0,63.0,29.91,North,0,5.0,5.0,82,0.00,,,0.00,TxWx,2013-10-17 00:22:00,
2013-10-16 19:23:00,69.0,63.0,29.91,ENE,67,6.0,8.0,82,0.00,,,0.00,TxWx,2013-10-17 00:23:00,
2013-10-16 19:24:00,69.0,63.0,29.91,NNW,337,5.0,5.0,82,0.00,,,0.00,TxWx,2013-10-17 00:24:00,
2013-10-16 19:26:00,68.0,62.0,29.91,NE,45,6.0,8.0,81,0.00,,,0.00,TxWx,2013-10-17 00:26:00,
2013-10-16 19:27:00,68.0,62.0,29.92,NW,315,5.0,5.0,81,0.00,,,0.00,TxWx,2013-10-17 00:27:00,
2013-10-16 19:29:00,68.0,62.0,29.91,NNW,337,5.0,5.0,81,0.00,,,0.00,TxWx,2013-10-17 00:29:00,
2013-10-16 19:31:00,68.0,62.0,29.92,NE,45,5.0,5.0,81,0.00,,,0.00,TxWx,2013-10-17 00:31:00,
2013-10-16 19:32:00,68.0,62.0,29.92,NE,45,10.0,10.0,82,0.00,,,0.00,TxWx,2013-10-17 00:32:00,
2013-10-16 19:34:00,68.0,62.0,29.92,NNE,22,13.0,13.0,82,0.00,,,0.00,TxWx,2013-10-17 00:34:00,
2013-10-16 19:36:00,68.0,62.0,29.92,NE,45,6.0,8.0,82,0.00,,,0.00,TxWx,2013-10-17 00:36:00,
2013-10-16 19:37:00,68.0,62.0,29.92,North,0,11.0,11.0,82,0.00,,,0.00,TxWx,2013-10-17 00:37:00,
2013-10-16 19:39:00,68.0,62.0,29.92,NNE,22,5.0,7.0,82,0.00,,,0.00,TxWx,2013-10-17 00:39:00,
2013-10-16 19:40:00,68.0,62.0,29.92,NNE,22,10.0,10.0,82,0.00,,,0.00,TxWx,2013-10-17 00:40:00,
2013-10-16 19:41:00,68.0,62.0,29.92,North,0,6.0,10.0,82,0.00,,,0.00,TxWx,2013-10-17 00:41:00,
2013-10-16 19:42:00,68.0,62.0,29.92,NNE,22,6.0,6.0,82,0.00,,,0.00,TxWx,2013-10-17 00:42:00,
2013-10-16 19:43:00,68.0,62.0,29.92,NNE,22,5.0,5.0,82,0.00,,,0.00,TxWx,2013-10-17 00:43:00,
2013-10-16 19:44:00,68.0,62.0,29.92,NNW,337,5.0,6.0,83,0.00,,,0.00,TxWx,2013-10-17 00:44:00,
2013-10-16 19:45:00,68.0,62.0,29.92,NNE,22,4.0,5.0,83,0.00,,,0.00,TxWx,2013-10-17 00:45:00,
2013-10-16 19:47:00,68.0,62.0,29.92,NNE,22,6.0,6.0,83,0.00,,,0.00,TxWx,2013-10-17 00:47:00,
2013-10-16 19:48:00,68.0,62.0,29.92,NNE,22,6.0,8.0,83,0.00,,,0.00,TxWx,2013-10-17 00:48:00,
2013-10-16 19:49:00,67.0,61.0,29.92,NE,45,5.0,6.0,82,0.00,,,0.00,TxWx,2013-10-17 00:49:00,
2013-10-16 19:50:00,67.0,61.0,29.92,North,0,5.0,5.0,82,0.00,,,0.00,TxWx,2013-10-17 00:50:00,
2013-10-16 19:52:00,67.0,61.0,29.92,NNE,22,10.0,10.0,83,0.00,,,0.00,TxWx,2013-10-17 00:52:00,
2013-10-16 19:53:00,67.0,61.0,29.92,ENE,67,4.0,4.0,83,0.00,,,0.00,TxWx,2013-10-17 00:53:00,
2013-10-16 19:54:00,67.0,61.0,29.92,NNW,337,10.0,10.0,83,0.00,,,0.00,TxWx,2013-10-17 00:54:00,
2013-10-16 19:55:00,67.0,61.0,29.92,NW,315,6.0,9.0,82,0.00,,,0.00,TxWx,2013-10-17 00:55:00,
2013-10-16 19:57:00,67.0,61.0,29.92,North,0,8.0,10.0,82,0.00,,,0.00,TxWx,2013-10-17 00:57:00,
2013-10-16 19:58:00,67.0,61.0,29.93,NNE,22,11.0,11.0,83,0.00,,,0.00,TxWx,2013-10-17 00:58:00,
2013-10-16 19:59:00,67.0,61.0,29.93,NNE,22,9.0,9.0,82,0.00,,,0.00,TxWx,2013-10-17 00:59:00,
2013-10-16 20:00:00,67.0,61.0,29.93,NNE,22,6.0,6.0,83,0.00,,,0.00,TxWx,2013-10-17 01:00:00,
2013-10-16 20:01:00,67.0,61.0,29.93,NE,45,10.0,11.0,83,0.00,,,0.00,TxWx,2013-10-17 01:01:00,
2013-10-16 20:03:00,67.0,62.0,29.93,North,0,7.0,8.0,83,0.00,,,0.00,TxWx,2013-10-17 01:03:00,
2013-10-16 20:04:00,67.0,62.0,29.93,NE,45,8.0,8.0,83,0.00,,,0.00,TxWx,2013-10-17 01:04:00,
2013-10-16 20:05:00,67.0,62.0,29.93,NNE,22,14.0,14.0,83,0.00,,,0.00,TxWx,2013-10-17 01:05:00,
2013-10-16 20:06:00,67.0,62.0,29.93,NNE,22,11.0,11.0,83,0.00,,,0.00,TxWx,2013-10-17 01:06:00,
2013-10-16 20:08:00,67.0,62.0,29.93,North,0,9.0,9.0,84,0.00,,,0.00,TxWx,2013-10-17 01:08:00,
2013-10-16 20:09:00,67.0,62.0,29.93,NNE,22,8.0,8.0,83,0.00,,,0.00,TxWx,2013-10-17 01:09:00,
2013-10-16 20:10:00,67.0,62.0,29.93,NNE,22,11.0,11.0,83,0.00,,,0.00,TxWx,2013-10-17 01:10:00,
2013-10-16 20:11:00,67.0,62.0,29.94,North,0,5.0,5.0,84,0.00,,,0.00,TxWx,2013-10-17 01:11:00,
2013-10-16 20:12:00,66.0,61.0,29.93,NNE,22,12.0,13.0,84,0.00,,,0.00,TxWx,2013-10-17 01:12:00,
2013-10-16 20:14:00,66.0,61.0,29.93,NNW,337,9.0,14.0,83,0.00,,,0.00,TxWx,2013-10-17 01:14:00,
2013-10-16 20:15:00,66.0,61.0,29.93,NNW,337,6.0,8.0,84,0.00,,,0.00,TxWx,2013-10-17 01:15:00,
2013-10-16 20:17:00,67.0,62.0,29.93,NE,45,5.0,5.0,84,0.00,,,0.00,TxWx,2013-10-17 01:17:00,
2013-10-16 20:18:00,67.0,62.0,29.93,NE,45,10.0,10.0,84,0.00,,,0.00,TxWx,2013-10-17 01:18:00,
2013-10-16 20:19:00,66.0,61.0,29.93,NNE,22,6.0,7.0,84,0.00,,,0.00,TxWx,2013-10-17 01:19:00,
2013-10-16 20:20:00,66.0,61.0,29.94,NNW,337,6.0,6.0,84,0.00,,,0.00,TxWx,2013-10-17 01:20:00,
2013-10-16 20:22:00,66.0,61.0,29.94,NNE,22,9.0,9.0,84,0.00,,,0.00,TxWx,2013-10-17 01:22:00,
2013-10-16 20:24:00,66.0,61.0,29.94,North,0,10.0,11.0,84,0.00,,,0.00,TxWx,2013-10-17 01:24:00,
2013-10-16 20:25:00,66.0,61.0,29.94,NNE,22,9.0,9.0,84,0.00,,,0.00,TxWx,2013-10-17 01:25:00,
2013-10-16 20:27:00,66.0,61.0,29.94,NE,45,7.0,7.0,84,0.00,,,0.00,TxWx,2013-10-17 01:27:00,
2013-10-16 20:29:00,66.0,61.0,29.94,NNW,337,12.0,12.0,84,0.00,,,0.00,TxWx,2013-10-17 01:29:00,
2013-10-16 20:30:00,66.0,61.0,29.94,NNW,337,5.0,5.0,84,0.00,,,0.00,TxWx,2013-10-17 01:30:00,
2013-10-16 20:31:00,66.0,61.0,29.94,North,0,6.0,6.0,84,0.00,,,0.00,TxWx,2013-10-17 01:31:00,
2013-10-16 20:33:00,66.0,61.0,29.94,NNW,337,8.0,9.0,84,0.00,,,0.00,TxWx,2013-10-17 01:33:00,
2013-10-16 20:34:00,66.0,61.0,29.94,NNE,22,5.0,6.0,84,0.00,,,0.00,TxWx,2013-10-17 01:34:00,
2013-10-16 20:35:00,66.0,61.0,29.94,North,0,5.0,5.0,84,0.00,,,0.00,TxWx,2013-10-17 01:35:00,
2013-10-16 20:36:00,66.0,61.0,29.94,NNE,22,6.0,6.0,84,0.00,,,0.00,TxWx,2013-10-17 01:36:00,
2013-10-16 20:38:00,66.0,61.0,29.94,NE,45,7.0,8.0,84,0.00,,,0.00,TxWx,2013-10-17 01:38:00,
2013-10-16 20:40:00,66.0,61.0,29.94,NNE,22,4.0,5.0,84,0.00,,,0.00,TxWx,2013-10-17 01:40:00,
2013-10-16 20:41:00,66.0,61.0,29.94,North,0,11.0,13.0,85,0.00,,,0.00,TxWx,2013-10-17 01:41:00,
2013-10-16 20:42:00,66.0,61.0,29.94,NNW,337,8.0,8.0,84,0.00,,,0.00,TxWx,2013-10-17 01:42:00,
2013-10-16 20:43:00,66.0,61.0,29.94,NNE,22,13.0,13.0,84,0.00,,,0.00,TxWx,2013-10-17 01:43:00,
2013-10-16 20:45:00,66.0,61.0,29.95,NNE,22,8.0,9.0,85,0.00,,,0.00,TxWx,2013-10-17 01:45:00,
2013-10-16 20:46:00,66.0,61.0,29.95,NE,45,9.0,10.0,85,0.00,,,0.00,TxWx,2013-10-17 01:46:00,
2013-10-16 20:47:00,66.0,61.0,29.95,NNE,22,8.0,9.0,85,0.00,,,0.00,TxWx,2013-10-17 01:47:00,
2013-10-16 20:48:00,66.0,61.0,29.95,NW,315,10.0,10.0,85,0.00,,,0.00,TxWx,2013-10-17 01:48:00,
2013-10-16 20:50:00,65.0,60.0,29.95,NNE,22,10.0,10.0,85,0.00,,,0.00,TxWx,2013-10-17 01:50:00,
2013-10-16 20:51:00,65.0,60.0,29.95,NE,45,10.0,10.0,85,0.00,,,0.00,TxWx,2013-10-17 01:51:00,
2013-10-16 20:53:00,65.0,60.0,29.95,ENE,67,8.0,9.0,85,0.00,,,0.00,TxWx,2013-10-17 01:53:00,
2013-10-16 20:54:00,65.0,60.0,29.95,NNE,22,6.0,9.0,85,0.00,,,0.00,TxWx,2013-10-17 01:54:00,
2013-10-16 20:55:00,65.0,60.0,29.95,NNE,22,6.0,6.0,85,0.00,,,0.00,TxWx,2013-10-17 01:55:00,
2013-10-16 20:56:00,65.0,60.0,29.95,NNE,22,10.0,10.0,85,0.00,,,0.00,TxWx,2013-10-17 01:56:00,
2013-10-16 20:57:00,65.0,60.0,29.95,NNE,22,11.0,11.0,85,0.00,,,0.00,TxWx,2013-10-17 01:57:00,
2013-10-16 20:58:00,65.0,60.0,29.95,NNE,22,9.0,9.0,85,0.00,,,0.00,TxWx,2013-10-17 01:58:00,
2013-10-16 20:59:00,65.0,60.0,29.96,NNE,22,5.0,5.0,85,0.00,,,0.00,TxWx,2013-10-17 01:59:00,
2013-10-16 21:01:00,65.0,60.0,29.96,North,0,7.0,8.0,85,0.00,,,0.00,TxWx,2013-10-17 02:01:00,
2013-10-16 21:04:00,65.0,60.0,29.96,North,0,9.0,9.0,85,0.00,,,0.00,TxWx,2013-10-17 02:04:00,
2013-10-16 21:06:00,65.0,60.0,29.96,North,0,5.0,5.0,85,0.00,,,0.00,TxWx,2013-10-17 02:06:00,
2013-10-16 21:07:00,65.0,60.0,29.96,NNE,22,8.0,8.0,85,0.00,,,0.00,TxWx,2013-10-17 02:07:00,
2013-10-16 21:09:00,65.0,60.0,29.96,NNE,22,6.0,6.0,85,0.00,,,0.00,TxWx,2013-10-17 02:09:00,
2013-10-16 21:11:00,65.0,60.0,29.96,NNE,22,9.0,9.0,85,0.00,,,0.00,TxWx,2013-10-17 02:11:00,
2013-10-16 21:12:00,65.0,60.0,29.96,North,0,9.0,9.0,85,0.00,,,0.00,TxWx,2013-10-17 02:12:00,
2013-10-16 21:13:00,65.0,60.0,29.96,NW,315,3.0,4.0,85,0.00,,,0.00,TxWx,2013-10-17 02:13:00,
2013-10-16 21:14:00,65.0,61.0,29.96,NNW,337,6.0,7.0,86,0.00,,,0.00,TxWx,2013-10-17 02:14:00,
2013-10-16 21:15:00,65.0,60.0,29.96,NE,45,5.0,6.0,85,0.00,,,0.00,TxWx,2013-10-17 02:15:00,
2013-10-16 21:16:00,65.0,60.0,29.96,NNE,22,6.0,9.0,85,0.00,,,0.00,TxWx,2013-10-17 02:16:00,
2013-10-16 21:17:00,65.0,60.0,29.96,NE,45,9.0,11.0,85,0.00,,,0.00,TxWx,2013-10-17 02:17:00,
2013-10-16 21:19:00,65.0,61.0,29.96,North,0,8.0,10.0,86,0.00,,,0.00,TxWx,2013-10-17 02:19:00,
2013-10-16 21:20:00,65.0,61.0,29.97,North,0,5.0,6.0,86,0.00,,,0.00,TxWx,2013-10-17 02:20:00,
2013-10-16 21:22:00,65.0,61.0,29.97,North,0,7.0,8.0,86,0.00,,,0.00,TxWx,2013-10-17 02:22:00,
2013-10-16 21:23:00,65.0,61.0,29.97,NNE,22,9.0,9.0,86,0.00,,,0.00,TxWx,2013-10-17 02:23:00,
2013-10-16 21:24:00,65.0,61.0,29.97,NNW,337,8.0,10.0,86,0.00,,,0.00,TxWx,2013-10-17 02:24:00,
2013-10-16 21:25:00,65.0,61.0,29.97,NE,45,7.0,7.0,86,0.00,,,0.00,TxWx,2013-10-17 02:25:00,
2013-10-16 21:27:00,65.0,61.0,29.97,NE,45,8.0,10.0,86,0.00,,,0.00,TxWx,2013-10-17 02:27:00,
2013-10-16 21:28:00,65.0,61.0,29.97,NNW,337,3.0,4.0,86,0.00,,,0.00,TxWx,2013-10-17 02:28:00,
2013-10-16 21:29:00,65.0,61.0,29.97,NNW,337,5.0,5.0,86,0.00,,,0.00,TxWx,2013-10-17 02:29:00,
2013-10-16 21:30:00,65.0,61.0,29.97,WNW,292,6.0,9.0,87,0.00,,,0.00,TxWx,2013-10-17 02:30:00,
2013-10-16 21:31:00,65.0,61.0,29.97,NNE,22,7.0,8.0,87,0.00,,,0.00,TxWx,2013-10-17 02:31:00,
2013-10-16 21:32:00,65.0,61.0,29.97,NE,45,6.0,6.0,87,0.00,,,0.00,TxWx,2013-10-17 02:32:00,
2013-10-16 21:33:00,65.0,61.0,29.97,NNE,22,6.0,6.0,87,0.00,,,0.00,TxWx,2013-10-17 02:33:00,
2013-10-16 21:34:00,65.0,61.0,29.97,NNW,337,7.0,9.0,87,0.00,,,0.00,TxWx,2013-10-17 02:34:00,
2013-10-16 21:35:00,65.0,61.0,29.97,NE,45,6.0,6.0,87,0.00,,,0.00,TxWx,2013-10-17 02:35:00,
2013-10-16 21:36:00,65.0,61.0,29.98,NNE,22,10.0,10.0,87,0.00,,,0.00,TxWx,2013-10-17 02:36:00,
2013-10-16 21:37:00,65.0,61.0,29.98,NE,45,7.0,9.0,87,0.00,,,0.00,TxWx,2013-10-17 02:37:00,
2013-10-16 21:38:00,65.0,61.0,29.98,NNW,337,9.0,11.0,87,0.00,,,0.00,TxWx,2013-10-17 02:38:00,
2013-10-16 21:39:00,64.0,60.0,29.98,NE,45,8.0,9.0,86,0.00,,,0.00,TxWx,2013-10-17 02:39:00,
2013-10-16 21:41:00,65.0,61.0,29.98,NE,45,6.0,8.0,87,0.00,,,0.00,TxWx,2013-10-17 02:41:00,
2013-10-16 21:42:00,65.0,61.0,29.98,NNE,22,7.0,8.0,87,0.00,,,0.00,TxWx,2013-10-17 02:42:00,
2013-10-16 21:44:00,64.0,60.0,29.98,North,0,10.0,10.0,86,0.00,,,0.00,TxWx,2013-10-17 02:44:00,
2013-10-16 21:46:00,64.0,60.0,29.98,North,0,8.0,8.0,86,0.00,,,0.00,TxWx,2013-10-17 02:46:00,
2013-10-16 21:47:00,64.0,60.0,29.98,NNE,22,9.0,10.0,86,0.00,,,0.00,TxWx,2013-10-17 02:47:00,
2013-10-16 21:48:00,64.0,60.0,29.98,NNE,22,10.0,11.0,86,0.00,,,0.00,TxWx,2013-10-17 02:48:00,
2013-10-16 21:49:00,64.0,60.0,29.98,North,0,5.0,5.0,86,0.00,,,0.00,TxWx,2013-10-17 02:49:00,
2013-10-16 21:51:00,64.0,60.0,29.98,NNW,337,9.0,10.0,86,0.00,,,0.00,TxWx,2013-10-17 02:51:00,
2013-10-16 21:52:00,64.0,60.0,29.98,North,0,6.0,6.0,86,0.00,,,0.00,TxWx,2013-10-17 02:52:00,
2013-10-16 21:53:00,64.0,60.0,29.98,NNE,22,8.0,9.0,86,0.00,,,0.00,TxWx,2013-10-17 02:53:00,
2013-10-16 21:54:00,64.0,60.0,29.99,North,0,5.0,5.0,86,0.00,,,0.00,TxWx,2013-10-17 02:54:00,
2013-10-16 21:55:00,64.0,60.0,29.98,NNE,22,4.0,4.0,86,0.00,,,0.00,TxWx,2013-10-17 02:55:00,
2013-10-16 21:56:00,64.0,60.0,29.98,NNE,22,8.0,8.0,86,0.00,,,0.00,TxWx,2013-10-17 02:56:00,
2013-10-16 21:57:00,64.0,60.0,29.99,NNW,337,5.0,6.0,86,0.00,,,0.00,TxWx,2013-10-17 02:57:00,
2013-10-16 21:58:00,64.0,60.0,29.98,North,0,6.0,7.0,86,0.00,,,0.00,TxWx,2013-10-17 02:58:00,
2013-10-16 21:59:00,64.0,60.0,29.98,NNW,337,4.0,4.0,86,0.00,,,0.00,TxWx,2013-10-17 02:59:00,
2013-10-16 22:00:00,64.0,60.0,29.99,NNW,337,5.0,5.0,86,0.00,,,0.00,TxWx,2013-10-17 03:00:00,
2013-10-16 22:01:00,64.0,60.0,29.99,North,0,4.0,4.0,86,0.00,,,0.00,TxWx,2013-10-17 03:01:00,
2013-10-16 22:02:00,64.0,60.0,29.99,NNE,22,8.0,8.0,86,0.00,,,0.00,TxWx,2013-10-17 03:02:00,
2013-10-16 22:03:00,64.0,60.0,29.99,NE,45,6.0,6.0,86,0.00,,,0.00,TxWx,2013-10-17 03:03:00,
2013-10-16 22:04:00,64.0,60.0,29.99,North,0,5.0,5.0,86,0.00,,,0.00,TxWx,2013-10-17 03:04:00,
2013-10-16 22:05:00,64.0,60.0,29.99,NNW,337,6.0,6.0,86,0.00,,,0.00,TxWx,2013-10-17 03:05:00,
2013-10-16 22:06:00,64.0,60.0,29.99,NNE,22,6.0,6.0,86,0.00,,,0.00,TxWx,2013-10-17 03:06:00,
2013-10-16 22:08:00,64.0,60.0,29.99,NNW,337,6.0,7.0,86,0.00,,,0.00,TxWx,2013-10-17 03:08:00,
2013-10-16 22:09:00,64.0,60.0,29.99,NNE,22,6.0,6.0,86,0.00,,,0.00,TxWx,2013-10-17 03:09:00,
2013-10-16 22:10:00,64.0,60.0,29.99,NNW,337,12.0,12.0,86,0.00,,,0.00,TxWx,2013-10-17 03:10:00,
2013-10-16 22:11:00,64.0,60.0,29.99,NNW,337,9.0,10.0,86,0.00,,,0.00,TxWx,2013-10-17 03:11:00,
2013-10-16 22:13:00,64.0,60.0,29.99,NNW,337,16.0,16.0,86,0.00,,,0.00,TxWx,2013-10-17 03:13:00,
2013-10-16 22:14:00,64.0,60.0,29.99,NNW,337,8.0,8.0,86,0.00,,,0.00,TxWx,2013-10-17 03:14:00,
2013-10-16 22:15:00,64.0,60.0,29.99,North,0,9.0,9.0,86,0.00,,,0.00,TxWx,2013-10-17 03:15:00,
2013-10-16 22:16:00,64.0,60.0,29.99,NNE,22,10.0,10.0,86,0.00,,,0.00,TxWx,2013-10-17 03:16:00,
2013-10-16 22:19:00,64.0,60.0,29.99,NNE,22,10.0,10.0,86,0.00,,,0.00,TxWx,2013-10-17 03:19:00,
2013-10-16 22:20:00,64.0,60.0,29.99,NNE,22,5.0,6.0,86,0.00,,,0.00,TxWx,2013-10-17 03:20:00,
2013-10-16 22:21:00,63.0,59.0,29.99,NNE,22,5.0,6.0,86,0.00,,,0.00,TxWx,2013-10-17 03:21:00,
2013-10-16 22:22:00,63.0,59.0,29.99,North,0,6.0,6.0,86,0.00,,,0.00,TxWx,2013-10-17 03:22:00,
2013-10-16 22:24:00,64.0,60.0,29.99,North,0,6.0,8.0,87,0.00,,,0.00,TxWx,2013-10-17 03:24:00,
2013-10-16 22:25:00,63.0,59.0,29.99,NNW,337,8.0,10.0,87,0.00,,,0.00,TxWx,2013-10-17 03:25:00,
2013-10-16 22:27:00,64.0,60.0,29.99,NNE,22,8.0,11.0,87,0.00,,,0.00,TxWx,2013-10-17 03:27:00,
2013-10-16 22:29:00,63.0,59.0,29.99,NNW,337,8.0,8.0,87,0.00,,,0.00,TxWx,2013-10-17 03:29:00,
2013-10-16 22:30:00,63.0,59.0,29.99,NNE,22,7.0,7.0,87,0.00,,,0.00,TxWx,2013-10-17 03:30:00,
2013-10-16 22:32:00,63.0,59.0,29.99,NNE,22,9.0,9.0,87,0.00,,,0.00,TxWx,2013-10-17 03:32:00,
2013-10-16 22:34:00,63.0,59.0,29.99,North,0,7.0,7.0,87,0.00,,,0.00,TxWx,2013-10-17 03:34:00,
2013-10-16 22:35:00,63.0,59.0,29.99,North,0,4.0,5.0,87,0.00,,,0.00,TxWx,2013-10-17 03:35:00,
2013-10-16 22:36:00,63.0,59.0,29.99,NE,45,8.0,8.0,87,0.00,,,0.00,TxWx,2013-10-17 03:36:00,
2013-10-16 22:37:00,63.0,59.0,29.99,NNW,337,11.0,11.0,87,0.00,,,0.00,TxWx,2013-10-17 03:37:00,
2013-10-16 22:38:00,63.0,59.0,29.99,NNW,337,8.0,8.0,87,0.00,,,0.00,TxWx,2013-10-17 03:38:00,
2013-10-16 22:39:00,63.0,59.0,29.99,North,0,10.0,11.0,87,0.00,,,0.00,TxWx,2013-10-17 03:39:00,
2013-10-16 22:41:00,63.0,59.0,30.00,North,0,13.0,14.0,87,0.00,,,0.00,TxWx,2013-10-17 03:41:00,
2013-10-16 22:42:00,63.0,59.0,30.00,NNW,337,6.0,7.0,87,0.00,,,0.00,TxWx,2013-10-17 03:42:00,
2013-10-16 22:43:00,63.0,59.0,30.00,NNW,337,11.0,11.0,87,0.00,,,0.00,TxWx,2013-10-17 03:43:00,
2013-10-16 22:45:00,63.0,59.0,30.00,NW,315,12.0,12.0,87,0.00,,,0.00,TxWx,2013-10-17 03:45:00,
2013-10-16 22:46:00,63.0,59.0,29.99,NE,45,6.0,6.0,87,0.00,,,0.00,TxWx,2013-10-17 03:46:00,
2013-10-16 22:47:00,63.0,59.0,29.99,NNW,337,7.0,7.0,88,0.00,,,0.00,TxWx,2013-10-17 03:47:00,
2013-10-16 22:48:00,63.0,59.0,29.99,NNE,22,13.0,13.0,88,0.00,,,0.00,TxWx,2013-10-17 03:48:00,
2013-10-16 22:49:00,63.0,59.0,29.99,NE,45,5.0,6.0,88,0.00,,,0.00,TxWx,2013-10-17 03:49:00,
2013-10-16 22:50:00,63.0,59.0,29.99,NNE,22,11.0,14.0,88,0.00,,,0.00,TxWx,2013-10-17 03:50:00,
2013-10-16 22:51:00,63.0,59.0,30.00,North,0,10.0,10.0,88,0.00,,,0.00,TxWx,2013-10-17 03:51:00,
2013-10-16 22:52:00,63.0,59.0,30.00,North,0,4.0,5.0,88,0.00,,,0.00,TxWx,2013-10-17 03:52:00,
2013-10-16 22:53:00,62.0,58.0,29.99,NNW,337,6.0,7.0,88,0.00,,,0.00,TxWx,2013-10-17 03:53:00,
2013-10-16 22:54:00,63.0,59.0,30.00,NNE,22,6.0,6.0,88,0.00,,,0.00,TxWx,2013-10-17 03:54:00,
2013-10-16 22:55:00,62.0,58.0,30.00,North,0,6.0,6.0,88,0.00,,,0.00,TxWx,2013-10-17 03:55:00,
2013-10-16 22:56:00,62.0,58.0,30.00,NNW,337,6.0,6.0,88,0.00,,,0.00,TxWx,2013-10-17 03:56:00,
2013-10-16 22:57:00,62.0,58.0,30.00,North,0,6.0,6.0,88,0.00,,,0.00,TxWx,2013-10-17 03:57:00,
2013-10-16 22:58:00,62.0,58.0,30.00,North,0,6.0,6.0,88,0.00,,,0.00,TxWx,2013-10-17 03:58:00,
2013-10-16 22:59:00,62.0,58.0,30.00,NNW,337,8.0,8.0,88,0.00,,,0.00,TxWx,2013-10-17 03:59:00,
2013-10-16 23:01:00,63.0,60.0,30.00,NNW,337,3.0,3.0,89,0.00,,,0.00,TxWx,2013-10-17 04:01:00,
2013-10-16 23:06:00,63.0,60.0,30.00,NNW,337,8.0,9.0,89,0.00,,,0.00,TxWx,2013-10-17 04:06:00,
2013-10-16 23:07:00,63.0,60.0,30.00,NNE,22,5.0,5.0,89,0.00,,,0.00,TxWx,2013-10-17 04:07:00,
2013-10-16 23:11:00,62.0,58.0,30.00,NNE,22,11.0,11.0,88,0.00,,,0.00,TxWx,2013-10-17 04:11:00,
2013-10-16 23:12:00,62.0,58.0,30.00,NNE,22,7.0,7.0,88,0.00,,,0.00,TxWx,2013-10-17 04:12:00,
2013-10-16 23:13:00,62.0,58.0,29.99,NNW,337,5.0,5.0,88,0.00,,,0.00,TxWx,2013-10-17 04:13:00,
2013-10-16 23:16:00,62.0,58.0,29.99,North,0,12.0,14.0,88,0.00,,,0.00,TxWx,2013-10-17 04:16:00,
2013-10-16 23:17:00,62.0,58.0,29.99,NNE,22,11.0,12.0,88,0.00,,,0.00,TxWx,2013-10-17 04:17:00,
2013-10-16 23:18:00,62.0,58.0,29.99,NNE,22,11.0,11.0,88,0.00,,,0.00,TxWx,2013-10-17 04:18:00,
2013-10-16 23:21:00,62.0,59.0,29.99,NNE,22,10.0,10.0,89,0.00,,,0.00,TxWx,2013-10-17 04:21:00,
2013-10-16 23:22:00,62.0,59.0,29.99,NNW,337,14.0,14.0,89,0.00,,,0.00,TxWx,2013-10-17 04:22:00,
2013-10-16 23:23:00,62.0,59.0,29.99,WNW,292,6.0,7.0,89,0.00,,,0.00,TxWx,2013-10-17 04:23:00,
2013-10-16 23:26:00,62.0,59.0,29.99,NE,45,13.0,14.0,89,0.00,,,0.00,TxWx,2013-10-17 04:26:00,
2013-10-16 23:27:00,62.0,59.0,29.99,NNE,22,11.0,11.0,89,0.00,,,0.00,TxWx,2013-10-17 04:27:00,
2013-10-16 23:28:00,62.0,59.0,29.99,North,0,12.0,12.0,89,0.00,,,0.00,TxWx,2013-10-17 04:28:00,
2013-10-16 23:29:00,62.0,59.0,29.99,East,90,6.0,10.0,89,0.00,,,0.00,TxWx,2013-10-17 04:29:00,
2013-10-16 23:31:00,62.0,59.0,29.99,NNE,22,10.0,10.0,89,0.00,,,0.00,TxWx,2013-10-17 04:31:00,
2013-10-16 23:32:00,62.0,59.0,29.99,NE,45,6.0,8.0,89,0.00,,,0.00,TxWx,2013-10-17 04:32:00,
2013-10-16 23:33:00,62.0,59.0,29.99,NNE,22,8.0,11.0,89,0.00,,,0.00,TxWx,2013-10-17 04:33:00,
2013-10-16 23:34:00,62.0,59.0,29.99,NNE,22,12.0,14.0,89,0.00,,,0.00,TxWx,2013-10-17 04:34:00,
2013-10-16 23:37:00,62.0,59.0,29.99,North,0,9.0,9.0,90,0.00,,,0.00,TxWx,2013-10-17 04:37:00,
2013-10-16 23:39:00,62.0,59.0,29.99,NNW,337,6.0,6.0,90,0.00,,,0.00,TxWx,2013-10-17 04:39:00,
2013-10-16 23:42:00,62.0,59.0,30.00,North,0,7.0,8.0,89,0.00,,,0.00,TxWx,2013-10-17 04:42:00,
2013-10-16 23:43:00,62.0,59.0,29.99,NE,45,8.0,10.0,89,0.00,,,0.00,TxWx,2013-10-17 04:43:00,
2013-10-16 23:45:00,62.0,59.0,29.99,NNW,337,9.0,11.0,89,0.00,,,0.00,TxWx,2013-10-17 04:45:00,
2013-10-16 23:47:00,62.0,59.0,29.99,North,0,5.0,6.0,89,0.00,,,0.00,TxWx,2013-10-17 04:47:00,
2013-10-16 23:48:00,62.0,59.0,29.99,North,0,10.0,13.0,89,0.00,,,0.00,TxWx,2013-10-17 04:48:00,
2013-10-16 23:50:00,62.0,59.0,29.99,NNE,22,11.0,11.0,89,0.00,,,0.00,TxWx,2013-10-17 04:50:00,
2013-10-16 23:52:00,62.0,59.0,29.99,NNE,22,6.0,6.0,89,0.00,,,0.00,TxWx,2013-10-17 04:52:00,
2013-10-16 23:53:00,62.0,59.0,30.00,North,0,10.0,10.0,89,0.00,,,0.00,TxWx,2013-10-17 04:53:00,
2013-10-16 23:54:00,62.0,59.0,30.00,North,0,8.0,10.0,89,0.00,,,0.00,TxWx,2013-10-17 04:54:00,
2013-10-16 23:55:00,62.0,59.0,30.00,NE,45,4.0,4.0,89,0.00,,,0.00,TxWx,2013-10-17 04:55:00,
2013-10-16 23:56:00,62.0,59.0,30.00,North,0,11.0,11.0,89,0.00,,,0.00,TxWx,2013-10-17 04:56:00,
2013-10-16 23:58:00,62.0,59.0,30.00,NNE,22,10.0,13.0,89,0.00,,,0.00,TxWx,2013-10-17 04:58:00,
2013-10-16 23:59:00,62.0,59.0,30.00,NNW,337,5.0,5.0,89,0.00,,,0.00,TxWx,2013-10-17 04:59:00,